Observation data for Boys Ranch on 06/16/2019      Previous  Date  Next       Current Mesonet Observations  Soil Data  Daily Summary Page  Observations in Plain Language
KBY1 160500Z 01018G23KT 19/11 A2986 RMK A01 T01930114  RH  060%=      5-min Rain = 0
KBY1 160501Z 01014G21KT 19/11 A2986 RMK A01 T01940114  RH  060%=      5-min Rain = 0
KBY1 160502Z 01015G21KT 19/11 A2986 RMK A01 T01940113  RH  060%=      5-min Rain = 0
KBY1 160503Z 01016G23KT 19/11 A2986 RMK A01 T01940113  RH  059%=      5-min Rain = 0
KBY1 160504Z 01018G24KT 19/12 A2986 RMK A01 T01930118  RH  062%=      5-min Rain = 0
KBY1 160505Z 01016G23KT 19/12 A2986 RMK A01 T01900120  RH  064%=      5-min Rain = 0
KBY1 160506Z 01019G25KT 19/12 A2985 RMK A01 T01880120  RH  065%=      5-min Rain = 0
KBY1 160507Z 00024KT 19/12 A2985 RMK A01 T01880118  RH  064%=      5-min Rain = 0
KBY1 160508Z 00021KT 19/12 A2985 RMK A01 T01890118  RH  063%=      5-min Rain = 0
KBY1 160509Z 01019G24KT 19/12 A2985 RMK A01 T01900118  RH  063%=      5-min Rain = 0
KBY1 160510Z 01018KT 19/12 A2985 RMK A01 T01910115  RH  062%=      5-min Rain = 0
KBY1 160511Z 01018G24KT 19/11 A2985 RMK A01 T01920113  RH  060%=      5-min Rain = 0
KBY1 160512Z 01018G24KT 19/11 A2985 RMK A01 T01940113  RH  060%=      5-min Rain = 0
KBY1 160513Z 02019KT 19/11 A2985 RMK A01 T01940113  RH  059%=      5-min Rain = 0
KBY1 160514Z 01020KT 20/12 A2985 RMK A01 T01950115  RH  060%=      5-min Rain = 0
KBY1 160515Z 02017KT 19/12 A2985 RMK A01 T01940116  RH  061%=      5-min Rain = 0
KBY1 160516Z 02017G22KT 19/12 A2985 RMK A01 T01920118  RH  062%=      5-min Rain = 0
KBY1 160517Z 01014G22KT 19/12 A2985 RMK A01 T01900120  RH  063%=      5-min Rain = 0
KBY1 160518Z 00017KT 19/12 A2986 RMK A01 T01890120  RH  064%=      5-min Rain = 0
KBY1 160519Z 36015KT 19/12 A2986 RMK A01 T01880120  RH  064%=      5-min Rain = 0
KBY1 160520Z 00019G27KT 19/12 A2985 RMK A01 T01880117  RH  063%=      5-min Rain = 0
KBY1 160521Z 00019G24KT 19/11 A2985 RMK A01 T01910113  RH  061%=      5-min Rain = 0
KBY1 160522Z 01020G26KT 19/11 A2985 RMK A01 T01930113  RH  060%=      5-min Rain = 0
KBY1 160523Z 00022G27KT 20/11 A2985 RMK A01 T01950114  RH  060%=      5-min Rain = 0
KBY1 160524Z 00023G29KT 19/12 A2985 RMK A01 T01940120  RH  062%=      5-min Rain = 0
KBY1 160525Z 00021KT 19/12 A2985 RMK A01 T01900123  RH  065%=      5-min Rain = 0
KBY1 160526Z 01018G23KT 19/12 A2985 RMK A01 T01880123  RH  066%=      5-min Rain = 0
KBY1 160527Z 01016G23KT 19/12 A2985 RMK A01 T01870123  RH  066%=      5-min Rain = 0
KBY1 160528Z 01017KT 19/12 A2985 RMK A01 T01870120  RH  065%=      5-min Rain = 0
KBY1 160529Z 01015KT 19/12 A2985 RMK A01 T01890119  RH  064%=      5-min Rain = 0
KBY1 160530Z 02017G22KT 19/12 A2984 RMK A01 T01900118  RH  063%=      5-min Rain = 0
KBY1 160531Z 02018KT 19/12 A2984 RMK A01 T01920115  RH  061%=      5-min Rain = 0
KBY1 160532Z 01020G27KT 19/11 A2984 RMK A01 T01940114  RH  060%=      5-min Rain = 0
KBY1 160533Z 01019G26KT 19/12 A2984 RMK A01 T01940118  RH  061%=      5-min Rain = 0
KBY1 160534Z 36018G26KT 19/12 A2984 RMK A01 T01910122  RH  064%=      5-min Rain = 0
KBY1 160535Z 00022G29KT 19/12 A2985 RMK A01 T01880123  RH  066%=      5-min Rain = 0
KBY1 160536Z 00020G25KT 19/12 A2985 RMK A01 T01870122  RH  066%=      5-min Rain = 0
KBY1 160537Z 36018G25KT 19/12 A2985 RMK A01 T01880122  RH  065%=      5-min Rain = 0
KBY1 160538Z 36019G26KT 19/12 A2985 RMK A01 T01870122  RH  066%=      5-min Rain = 0
KBY1 160539Z 00020G25KT 19/12 A2985 RMK A01 T01880121  RH  065%=      5-min Rain = 0
KBY1 160540Z 01023KT 19/12 A2985 RMK A01 T01900120  RH  064%=      5-min Rain = 0
KBY1 160541Z 01021G27KT 19/12 A2985 RMK A01 T01910121  RH  064%=      5-min Rain = 0
KBY1 160542Z 02018KT 19/12 A2985 RMK A01 T01910121  RH  064%=      5-min Rain = 0
KBY1 160543Z 01017G22KT 19/12 A2985 RMK A01 T01910120  RH  063%=      5-min Rain = 0
KBY1 160544Z 02017KT 19/12 A2985 RMK A01 T01910120  RH  063%=      5-min Rain = 0
KBY1 160545Z 02018KT 19/12 A2985 RMK A01 T01910120  RH  063%=      5-min Rain = 0
KBY1 160546Z 02021G29KT 19/12 A2986 RMK A01 T01910120  RH  063%=      5-min Rain = 0
KBY1 160547Z 01019G25KT 19/12 A2986 RMK A01 T01920120  RH  063%=      5-min Rain = 0
KBY1 160548Z 01018G24KT 19/12 A2986 RMK A01 T01910122  RH  064%=      5-min Rain = 0
KBY1 160549Z 01022KT 19/12 A2986 RMK A01 T01900123  RH  065%=      5-min Rain = 0
KBY1 160550Z 01019G24KT 19/12 A2986 RMK A01 T01890124  RH  066%=      5-min Rain = 0
KBY1 160551Z 02022G30KT 19/13 A2986 RMK A01 T01880127  RH  068%=      5-min Rain = 0
KBY1 160552Z 02020G27KT 18/13 A2986 RMK A01 T01840129  RH  070%=      5-min Rain = 0
KBY1 160553Z 01026G33KT 18/13 A2986 RMK A01 T01820130  RH  072%=      5-min Rain = 0
KBY1 160554Z 02026G33KT 18/13 A2986 RMK A01 T01800130  RH  073%=      5-min Rain = 0
KBY1 160555Z 02023G32KT 18/13 A2986 RMK A01 T01780131  RH  074%=      5-min Rain = 0
KBY1 160556Z 02024KT 18/13 A2986 RMK A01 T01770132  RH  075%=      5-min Rain = 0
KBY1 160557Z 01021KT 18/13 A2986 RMK A01 T01760133  RH  076%=      5-min Rain = 0
KBY1 160558Z 01024G30KT 18/13 A2986 RMK A01 T01750134  RH  077%=      5-min Rain = 0
KBY1 160559Z 02024G32KT 18/13 A2987 RMK A01 T01750133  RH  077%=      5-min Rain = 0
KBY1 160600Z 02027G33KT 17/13 A2987 RMK A01 T01740134  RH  077%=      5-min Rain = 0
KBY1 160601Z 01025KT 17/13 A2987 RMK A01 T01740134  RH  077%=      5-min Rain = 0
KBY1 160602Z 02022G28KT 17/14 A2987 RMK A01 T01740135  RH  078%=      5-min Rain = 0
KBY1 160603Z 02021G31KT 17/14 A2987 RMK A01 T01730136  RH  079%=      5-min Rain = 0
KBY1 160604Z 02023G31KT 17/14 A2987 RMK A01 T01720136  RH  079%=      5-min Rain = 0
KBY1 160605Z 02024G30KT 17/14 A2987 RMK A01 T01720135  RH  079%=      5-min Rain = 0
KBY1 160606Z 01024G31KT 17/14 A2987 RMK A01 T01720135  RH  078%=      5-min Rain = 0
KBY1 160607Z 01022KT 17/14 A2987 RMK A01 T01720135  RH  079%=      5-min Rain = 0
KBY1 160608Z 01022G30KT 17/14 A2987 RMK A01 T01720135  RH  078%=      5-min Rain = 0
KBY1 160609Z 02021G27KT 17/14 A2987 RMK A01 T01720135  RH  078%=      5-min Rain = 0
KBY1 160610Z 02023KT 17/14 A2987 RMK A01 T01720135  RH  078%=      5-min Rain = 0
KBY1 160611Z 02021G26KT 17/14 A2987 RMK A01 T01720135  RH  079%=      5-min Rain = 0
KBY1 160612Z 02020G26KT 17/14 A2987 RMK A01 T01720135  RH  079%=      5-min Rain = 0
KBY1 160613Z 02021G30KT 17/14 A2987 RMK A01 T01720135  RH  079%=      5-min Rain = 0
KBY1 160614Z 02022G28KT 17/13 A2987 RMK A01 T01720133  RH  078%=      5-min Rain = 0
KBY1 160615Z 02021G27KT 17/13 A2987 RMK A01 T01730133  RH  077%=      5-min Rain = 0
KBY1 160616Z 02023G28KT 17/13 A2987 RMK A01 T01730132  RH  076%=      5-min Rain = 0
KBY1 160617Z 02021G26KT 17/13 A2986 RMK A01 T01740130  RH  075%=      5-min Rain = 0
KBY1 160618Z 02019G26KT 18/13 A2986 RMK A01 T01750130  RH  075%=      5-min Rain = 0
KBY1 160619Z 03021KT 18/13 A2986 RMK A01 T01750131  RH  075%=      5-min Rain = 0
KBY1 160620Z 03021G28KT 18/13 A2986 RMK A01 T01750131  RH  076%=      5-min Rain = 0
KBY1 160621Z 02020G26KT 17/13 A2986 RMK A01 T01740131  RH  076%=      5-min Rain = 0
KBY1 160622Z 02021G27KT 17/13 A2986 RMK A01 T01740129  RH  075%=      5-min Rain = 0
KBY1 160623Z 02019G25KT 18/13 A2987 RMK A01 T01750128  RH  074%=      5-min Rain = 0
KBY1 160624Z 02019G24KT 18/13 A2987 RMK A01 T01760127  RH  073%=      5-min Rain = 0
KBY1 160625Z 02015KT 18/13 A2987 RMK A01 T01770127  RH  072%=      5-min Rain = 0
KBY1 160626Z 02020G26KT 18/13 A2987 RMK A01 T01770126  RH  072%=      5-min Rain = 0
KBY1 160627Z 02018KT 18/13 A2987 RMK A01 T01780125  RH  071%=      5-min Rain = 0
KBY1 160628Z 02017KT 18/13 A2987 RMK A01 T01790125  RH  071%=      5-min Rain = 0
KBY1 160629Z 02015KT 18/13 A2987 RMK A01 T01790126  RH  071%=      5-min Rain = 0
KBY1 160630Z 02015KT 18/13 A2987 RMK A01 T01790126  RH  071%=      5-min Rain = 0
KBY1 160631Z 02015KT 18/13 A2987 RMK A01 T01790127  RH  072%=      5-min Rain = 0
KBY1 160632Z 02016G21KT 18/13 A2988 RMK A01 T01780127  RH  072%=      5-min Rain = 0
KBY1 160633Z 02015G22KT 18/13 A2988 RMK A01 T01780126  RH  072%=      5-min Rain = 0
KBY1 160634Z 02015KT 18/13 A2988 RMK A01 T01780125  RH  071%=      5-min Rain = 0
KBY1 160635Z 02016KT 18/12 A2988 RMK A01 T01790124  RH  070%=      5-min Rain = 0
KBY1 160636Z 02015G20KT 18/12 A2988 RMK A01 T01790124  RH  070%=      5-min Rain = 0
KBY1 160637Z 02016KT 18/12 A2988 RMK A01 T01790124  RH  070%=      5-min Rain = 0
KBY1 160638Z 02012G17KT 18/13 A2988 RMK A01 T01790125  RH  070%=      5-min Rain = 0
KBY1 160639Z 02014KT 18/13 A2988 RMK A01 T01800126  RH  071%=      5-min Rain = 0
KBY1 160640Z 03014KT 18/13 A2988 RMK A01 T01790125  RH  071%=      5-min Rain = 0
KBY1 160641Z 02012KT 18/13 A2988 RMK A01 T01790125  RH  071%=      5-min Rain = 0
KBY1 160642Z 03011KT 18/13 A2989 RMK A01 T01790127  RH  071%=      5-min Rain = 0
KBY1 160643Z 03011G16KT 18/13 A2989 RMK A01 T01790128  RH  072%=      5-min Rain = 0
KBY1 160644Z 04012KT 18/13 A2989 RMK A01 T01780127  RH  072%=      5-min Rain = 0
KBY1 160645Z 04007KT 18/13 A2989 RMK A01 T01780127  RH  072%=      5-min Rain = 0
KBY1 160646Z 07005KT 18/13 A2989 RMK A01 T01780127  RH  072%=      5-min Rain = 0
KBY1 160647Z 11006KT 18/13 A299 RMK A01 T01770127  RH  072%=      5-min Rain = 0
KBY1 160648Z 14005KT 18/13 A299 RMK A01 T01770128  RH  073%=      5-min Rain = 0
KBY1 160649Z 15005KT 18/13 A2991 RMK A01 T01770127  RH  073%=      5-min Rain = 0
KBY1 160650Z 19008KT 18/13 A2991 RMK A01 T01770128  RH  073%=      5-min Rain = 0
KBY1 160651Z 19008KT 18/13 A2991 RMK A01 T01760128  RH  074%=      5-min Rain = 0
KBY1 160652Z 20008KT 18/13 A2991 RMK A01 T01760129  RH  074%=      5-min Rain = 0
KBY1 160653Z 21006KT 18/13 A2991 RMK A01 T01750129  RH  074%=      5-min Rain = 0
KBY1 160654Z 23005KT 18/13 A2991 RMK A01 T01750128  RH  074%=      5-min Rain = 0
KBY1 160655Z 21006KT 17/13 A2992 RMK A01 T01740127  RH  074%=      5-min Rain = 0
KBY1 160656Z 20007KT 18/13 A2992 RMK A01 T01750127  RH  073%=      5-min Rain = 0
KBY1 160657Z 21006KT 18/13 A2992 RMK A01 T01760125  RH  072%=      5-min Rain = 0
KBY1 160658Z 19004KT 18/13 A2993 RMK A01 T01770125  RH  072%=      5-min Rain = 0
KBY1 160659Z 16002KT 18/13 A2993 RMK A01 T01780126  RH  072%=      5-min Rain = 0
KBY1 160700Z 12002KT 18/12 A2993 RMK A01 T01780124  RH  070%=      5-min Rain = 0
KBY1 160701Z 05005KT 18/12 A2993 RMK A01 T01790124  RH  070%=      5-min Rain = 0
KBY1 160702Z 01005KT 18/12 A2993 RMK A01 T01800123  RH  069%=      5-min Rain = 0
KBY1 160703Z 36007KT 18/12 A2993 RMK A01 T01810123  RH  069%=      5-min Rain = 0
KBY1 160704Z 35009KT 18/12 A2993 RMK A01 T01820124  RH  069%=      5-min Rain = 0
KBY1 160705Z 36009KT 18/12 A2994 RMK A01 T01820124  RH  069%=      5-min Rain = 0
KBY1 160706Z 33006KT 18/12 A2994 RMK A01 T01820124  RH  069%=      5-min Rain = 0
KBY1 160707Z 29008KT 18/13 A2995 RMK A01 T01820126  RH  070%=      5-min Rain = 0
KBY1 160708Z 26007KT 18/13 A2995 RMK A01 T01820125  RH  069%=      5-min Rain = 0
KBY1 160709Z 19006KT 18/13 A2996 RMK A01 T01810125  RH  070%=      5-min Rain = 0
KBY1 160710Z 29006KT 18/13 A2996 RMK A01 T01810127  RH  070%=      5-min Rain = 0
KBY1 160711Z 29003KT 18/13 A2996 RMK A01 T01810125  RH  070%=      5-min Rain = 0
KBY1 160712Z 26005KT 18/13 A2996 RMK A01 T01810126  RH  070%=      5-min Rain = 0
KBY1 160713Z 25004KT 18/13 A2996 RMK A01 T01810128  RH  071%=      5-min Rain = 0
KBY1 160714Z 24003KT 18/13 A2996 RMK A01 T01800126  RH  071%=      5-min Rain = 0
KBY1 160715Z 28001KT 18/13 A2997 RMK A01 T01800127  RH  071%=      5-min Rain = 0
KBY1 160716Z 34002KT 18/13 A2997 RMK A01 T01800127  RH  071%=      5-min Rain = 0
KBY1 160717Z 34003KT 18/13 A2997 RMK A01 T01800128  RH  072%=      5-min Rain = 0
KBY1 160718Z 36004KT 18/13 A2997 RMK A01 T01790129  RH  072%=      5-min Rain = 0
KBY1 160719Z 01006KT 18/13 A2997 RMK A01 T01780128  RH  073%=      5-min Rain = 0
KBY1 160720Z 02005KT 18/13 A2997 RMK A01 T01780125  RH  071%=      5-min Rain = 0
KBY1 160721Z 34003KT 18/12 A2997 RMK A01 T01800124  RH  070%=      5-min Rain = 0
KBY1 160722Z 35002KT 18/12 A2998 RMK A01 T01810123  RH  069%=      5-min Rain = 0
KBY1 160723Z 32002KT 18/13 A2998 RMK A01 T01820126  RH  070%=      5-min Rain = 0
KBY1 160724Z 32002KT 18/13 A2998 RMK A01 T01820128  RH  071%=      5-min Rain = 0
KBY1 160725Z 31004KT 18/13 A2998 RMK A01 T01820127  RH  070%=      5-min Rain = 0
KBY1 160726Z 33005KT 18/13 A2998 RMK A01 T01810128  RH  071%=      5-min Rain = 0
KBY1 160727Z 35009KT 18/13 A2998 RMK A01 T01810127  RH  071%=      5-min Rain = 0
KBY1 160728Z 02008KT 18/13 A2997 RMK A01 T01810126  RH  070%=      5-min Rain = 0
KBY1 160729Z 02008KT 18/13 A2997 RMK A01 T01810126  RH  070%=      5-min Rain = 0
KBY1 160730Z 03009KT 18/13 A2996 RMK A01 T01810127  RH  071%=      5-min Rain = 0
KBY1 160731Z 01008KT 18/13 A2996 RMK A01 T01810129  RH  072%=      5-min Rain = 0
KBY1 160732Z 00009KT 18/13 A2997 RMK A01 T01800129  RH  072%=      5-min Rain = 0
KBY1 160733Z 36007KT 18/13 A2997 RMK A01 T01800130  RH  072%=      5-min Rain = 0
KBY1 160734Z 36005KT 18/13 A2997 RMK A01 T01790131  RH  074%=      5-min Rain = 0
KBY1 160735Z 35005KT 18/13 A2998 RMK A01 T01780130  RH  073%=      5-min Rain = 0
KBY1 160736Z 35005KT 18/13 A2998 RMK A01 T01780129  RH  073%=      5-min Rain = 0
KBY1 160737Z 31003KT 18/13 A2998 RMK A01 T01780128  RH  073%=      5-min Rain = 0
KBY1 160738Z 32002KT 18/13 A2998 RMK A01 T01780129  RH  073%=      5-min Rain = 0
KBY1 160739Z 33003KT 18/13 A2998 RMK A01 T01790130  RH  073%=      5-min Rain = 0
KBY1 160740Z 35003KT 18/13 A2998 RMK A01 T01780131  RH  074%=      5-min Rain = 0
KBY1 160741Z 01003KT 18/13 A2997 RMK A01 T01780130  RH  074%=      5-min Rain = 0
KBY1 160742Z 02004KT 18/13 A2997 RMK A01 T01770132  RH  074%=      5-min Rain = 0
KBY1 160743Z 02005KT 18/13 A2997 RMK A01 T01770134  RH  076%=      5-min Rain = 0
KBY1 160744Z 02007KT 18/13 A2996 RMK A01 T01760133  RH  076%=      5-min Rain = 0
KBY1 160745Z 02008KT 18/13 A2996 RMK A01 T01760132  RH  076%=      5-min Rain = 0
KBY1 160746Z 02009KT 18/13 A2995 RMK A01 T01760131  RH  075%=      5-min Rain = 0
KBY1 160747Z 03010KT 18/13 A2995 RMK A01 T01760131  RH  075%=      5-min Rain = 0
KBY1 160748Z 04011KT 18/13 A2995 RMK A01 T01770132  RH  075%=      5-min Rain = 0
KBY1 160749Z 05010KT 18/13 A2994 RMK A01 T01760132  RH  075%=      5-min Rain = 0
KBY1 160750Z 06011KT 18/13 A2994 RMK A01 T01750134  RH  077%=      5-min Rain = 0
KBY1 160751Z 06012KT 17/13 A2993 RMK A01 T01740134  RH  077%=      5-min Rain = 0
KBY1 160752Z 06013KT 17/13 A2993 RMK A01 T01730133  RH  078%=      5-min Rain = 0
KBY1 160753Z 05012KT 17/13 A2993 RMK A01 T01720133  RH  078%=      5-min Rain = 0
KBY1 160754Z 04009KT 17/13 A2993 RMK A01 T01720134  RH  078%=      5-min Rain = 0
KBY1 160755Z 03011KT 17/13 A2993 RMK A01 T01720133  RH  078%=      5-min Rain = 0
KBY1 160756Z 02012KT 17/13 A2994 RMK A01 T01720132  RH  077%=      5-min Rain = 0
KBY1 160757Z 02010KT 17/13 A2994 RMK A01 T01720133  RH  078%=      5-min Rain = 0
KBY1 160758Z 02009KT 17/13 A2994 RMK A01 T01720134  RH  078%=      5-min Rain = 0
KBY1 160759Z 02009KT 17/14 A2994 RMK A01 T01720135  RH  078%=      5-min Rain = 0
KBY1 160800Z 02010KT 17/13 A2994 RMK A01 T01720132  RH  077%=      5-min Rain = 0
KBY1 160801Z 03008KT 17/13 A2995 RMK A01 T01730131  RH  076%=      5-min Rain = 0
KBY1 160802Z 03005KT 17/13 A2995 RMK A01 T01740133  RH  077%=      5-min Rain = 0
KBY1 160803Z 02005KT 17/13 A2995 RMK A01 T01730131  RH  076%=      5-min Rain = 0
KBY1 160804Z 02004KT 17/13 A2996 RMK A01 T01740131  RH  076%=      5-min Rain = 0
KBY1 160805Z 05003KT 17/13 A2996 RMK A01 T01740131  RH  076%=      5-min Rain = 0
KBY1 160806Z 15003KT 18/13 A2996 RMK A01 T01750132  RH  076%=      5-min Rain = 0
KBY1 160807Z 18006KT 18/13 A2997 RMK A01 T01750134  RH  077%=      5-min Rain = 0
KBY1 160808Z 20009KT 17/14 A2997 RMK A01 T01730135  RH  079%=      5-min Rain = 0
KBY1 160809Z 21008KT 17/14 A2997 RMK A01 T01710135  RH  079%=      5-min Rain = 0
KBY1 160810Z 20008KT 17/13 A2997 RMK A01 T01700134  RH  079%=      5-min Rain = 0
KBY1 160811Z 21008KT 17/13 A2997 RMK A01 T01700134  RH  079%=      5-min Rain = 0
KBY1 160812Z 20006KT 17/13 A2997 RMK A01 T01700131  RH  077%=      5-min Rain = 0
KBY1 160813Z 19005KT 17/13 A2996 RMK A01 T01710130  RH  077%=      5-min Rain = 0
KBY1 160814Z 17005KT 17/13 A2996 RMK A01 T01720131  RH  077%=      5-min Rain = 0
KBY1 160815Z 14003KT 17/13 A2996 RMK A01 T01720131  RH  077%=      5-min Rain = 0
KBY1 160816Z 13002KT 17/13 A2995 RMK A01 T01720131  RH  077%=      5-min Rain = 0
KBY1 160817Z 08002KT 17/13 A2995 RMK A01 T01730133  RH  077%=      5-min Rain = 0
KBY1 160818Z 07002KT 17/13 A2995 RMK A01 T01720133  RH  078%=      5-min Rain = 0
KBY1 160819Z 06002KT 17/14 A2995 RMK A01 T01720135  RH  079%=      5-min Rain = 0
KBY1 160820Z 05003KT 17/13 A2995 RMK A01 T01720134  RH  079%=      5-min Rain = 0
KBY1 160821Z 07003KT 17/14 A2995 RMK A01 T01710135  RH  079%=      5-min Rain = 0
KBY1 160822Z 07003KT 17/13 A2995 RMK A01 T01710134  RH  079%=      5-min Rain = 0
KBY1 160823Z 09003KT 17/14 A2995 RMK A01 T01710135  RH  079%=      5-min Rain = 0
KBY1 160824Z 10003KT 17/14 A2995 RMK A01 T01710135  RH  079%=      5-min Rain = 0
KBY1 160825Z 11003KT 17/13 A2995 RMK A01 T01710133  RH  078%=      5-min Rain = 0
KBY1 160826Z 12003KT 17/14 A2995 RMK A01 T01710135  RH  079%=      5-min Rain = 0
KBY1 160827Z 13003KT 17/14 A2995 RMK A01 T01710137  RH  080%=      5-min Rain = 0
KBY1 160828Z 14004KT 17/14 A2995 RMK A01 T01700138  RH  082%=      5-min Rain = 0
KBY1 160829Z 15004KT 17/14 A2995 RMK A01 T01690138  RH  082%=      5-min Rain = 0
KBY1 160830Z 14005KT 17/14 A2995 RMK A01 T01680138  RH  083%=      5-min Rain = 0
KBY1 160831Z 14005KT 17/14 A2994 RMK A01 T01670139  RH  083%=      5-min Rain = 0
KBY1 160832Z 13004KT 17/14 A2994 RMK A01 T01670137  RH  083%=      5-min Rain = 0
KBY1 160833Z 12003KT 17/14 A2994 RMK A01 T01670137  RH  083%=      5-min Rain = 0
KBY1 160834Z 10002KT 17/14 A2994 RMK A01 T01670137  RH  083%=      5-min Rain = 0
KBY1 160835Z 06002KT 17/14 A2994 RMK A01 T01670139  RH  084%=      5-min Rain = 0
KBY1 160836Z 04003KT 17/14 A2994 RMK A01 T01670140  RH  084%=      5-min Rain = 0
KBY1 160837Z 03003KT 17/14 A2994 RMK A01 T01660139  RH  084%=      5-min Rain = 0
KBY1 160838Z 03004KT 17/14 A2994 RMK A01 T01670138  RH  083%=      5-min Rain = 0
KBY1 160839Z 02004KT 17/14 A2994 RMK A01 T01660136  RH  082%=      5-min Rain = 0
KBY1 160840Z 01002KT 17/14 A2994 RMK A01 T01670136  RH  082%=      5-min Rain = 0
KBY1 160841Z 01000KT 17/14 A2995 RMK A01 T01680135  RH  081%=      5-min Rain = 0
KBY1 160842Z 23000KT 17/13 A2995 RMK A01 T01690134  RH  080%=      5-min Rain = 0
KBY1 160843Z 23002KT 17/14 A2995 RMK A01 T01690135  RH  081%=      5-min Rain = 0
KBY1 160844Z 22003KT 17/14 A2995 RMK A01 T01690138  RH  082%=      5-min Rain = 0
KBY1 160845Z 21003KT 17/14 A2996 RMK A01 T01670139  RH  083%=      5-min Rain = 0
KBY1 160846Z 21004KT 17/14 A2996 RMK A01 T01660139  RH  084%=      5-min Rain = 0
KBY1 160847Z 20003KT 17/14 A2995 RMK A01 T01650140  RH  085%=      5-min Rain = 0
KBY1 160848Z 19003KT 16/14 A2995 RMK A01 T01640140  RH  086%=      5-min Rain = 0
KBY1 160849Z 18002KT 16/14 A2995 RMK A01 T01630140  RH  086%=      5-min Rain = 0
KBY1 160850Z 16001KT 16/14 A2995 RMK A01 T01630141  RH  087%=      5-min Rain = 0
KBY1 160851Z 10001KT 16/14 A2995 RMK A01 T01630141  RH  087%=      5-min Rain = 0
KBY1 160852Z 05001KT 16/14 A2994 RMK A01 T01620142  RH  087%=      5-min Rain = 0
KBY1 160853Z 05002KT 16/14 A2994 RMK A01 T01620144  RH  089%=      5-min Rain = 0
KBY1 160854Z 04003KT 16/14 A2994 RMK A01 T01620143  RH  089%=      5-min Rain = 0
KBY1 160855Z 05003KT 16/14 A2994 RMK A01 T01610142  RH  089%=      5-min Rain = 0
KBY1 160856Z 06003KT 16/14 A2994 RMK A01 T01610143  RH  089%=      5-min Rain = 0
KBY1 160857Z 07002KT 16/14 A2994 RMK A01 T01620139  RH  086%=      5-min Rain = 0
KBY1 160858Z 09002KT 16/14 A2994 RMK A01 T01620137  RH  085%=      5-min Rain = 0
KBY1 160859Z 08002KT 16/14 A2995 RMK A01 T01630139  RH  086%=      5-min Rain = 0
KBY1 160900Z 08001KT 16/14 A2995 RMK A01 T01640140  RH  086%=      5-min Rain = 0
KBY1 160901Z 09001KT 16/14 A2995 RMK A01 T01640139  RH  085%=      5-min Rain = 0
KBY1 160902Z 08001KT 17/14 A2995 RMK A01 T01650140  RH  085%=      5-min Rain = 0
KBY1 160903Z 07001KT 17/14 A2995 RMK A01 T01650142  RH  086%=      5-min Rain = 0
KBY1 160904Z 04001KT 17/14 A2995 RMK A01 T01660144  RH  087%=      5-min Rain = 0
KBY1 160905Z 02002KT 17/14 A2995 RMK A01 T01660141  RH  086%=      5-min Rain = 0
KBY1 160906Z 02002KT 17/14 A2995 RMK A01 T01660138  RH  084%=      5-min Rain = 0
KBY1 160907Z 02002KT 17/14 A2995 RMK A01 T01660137  RH  083%=      5-min Rain = 0
KBY1 160908Z 02002KT 17/14 A2995 RMK A01 T01670136  RH  082%=      5-min Rain = 0
KBY1 160909Z 03002KT 17/14 A2995 RMK A01 T01670136  RH  082%=      5-min Rain = 0
KBY1 160910Z 02000KT 17/14 A2996 RMK A01 T01670135  RH  081%=      5-min Rain = 0
KBY1 160911Z 16000KT 17/14 A2996 RMK A01 T01680137  RH  082%=      5-min Rain = 0
KBY1 160912Z 19001KT 17/14 A2996 RMK A01 T01680138  RH  082%=      5-min Rain = 0
KBY1 160913Z 21001KT 17/14 A2996 RMK A01 T01680141  RH  084%=      5-min Rain = 0
KBY1 160914Z 23002KT 17/14 A2996 RMK A01 T01670141  RH  085%=      5-min Rain = 0
KBY1 160915Z 25002KT 17/14 A2997 RMK A01 T01660143  RH  086%=      5-min Rain = 0
KBY1 160916Z 29002KT 17/14 A2997 RMK A01 T01660141  RH  085%=      5-min Rain = 0
KBY1 160917Z 33001KT 17/14 A2997 RMK A01 T01660138  RH  084%=      5-min Rain = 0
KBY1 160918Z 35002KT 17/14 A2997 RMK A01 T01660138  RH  083%=      5-min Rain = 0
KBY1 160919Z 35003KT 17/14 A2997 RMK A01 T01670138  RH  083%=      5-min Rain = 0
KBY1 160920Z 36004KT 17/14 A2997 RMK A01 T01670139  RH  084%=      5-min Rain = 0
KBY1 160921Z 36005KT 17/14 A2997 RMK A01 T01670140  RH  084%=      5-min Rain = 0
KBY1 160922Z 35004KT 17/14 A2997 RMK A01 T01670142  RH  085%=      5-min Rain = 0
KBY1 160923Z 34004KT 17/14 A2997 RMK A01 T01670144  RH  086%=      5-min Rain = 0
KBY1 160924Z 33004KT 17/15 A2997 RMK A01 T01680145  RH  087%=      5-min Rain = 0
KBY1 160925Z 33005KT 17/14 A2998 RMK A01 T01670142  RH  085%=      5-min Rain = 0
KBY1 160926Z 33005KT 17/14 A2998 RMK A01 T01670138  RH  083%=      5-min Rain = 0
KBY1 160927Z 32004KT 17/14 A2998 RMK A01 T01680136  RH  082%=      5-min Rain = 0
KBY1 160928Z 32004KT 17/14 A2998 RMK A01 T01690137  RH  082%=      5-min Rain = 0
KBY1 160929Z 32004KT 17/14 A2998 RMK A01 T01690138  RH  082%=      5-min Rain = 0
KBY1 160930Z 35002KT 17/14 A2999 RMK A01 T01690137  RH  081%=      5-min Rain = 0
KBY1 160931Z 33003KT 17/14 A2999 RMK A01 T01700137  RH  081%=      5-min Rain = 0
KBY1 160932Z 34003KT 17/14 A2999 RMK A01 T01700138  RH  081%=      5-min Rain = 0
KBY1 160933Z 35003KT 17/14 A2999 RMK A01 T01700139  RH  082%=      5-min Rain = 0
KBY1 160934Z 36003KT 17/14 A2999 RMK A01 T01700136  RH  080%=      5-min Rain = 0
KBY1 160935Z 36004KT 17/14 A2999 RMK A01 T01700136  RH  080%=      5-min Rain = 0
KBY1 160936Z 01004KT 17/14 A2999 RMK A01 T01700136  RH  080%=      5-min Rain = 0
KBY1 160937Z 01004KT 17/14 A2999 RMK A01 T01700136  RH  080%=      5-min Rain = 0
KBY1 160938Z 01004KT 17/14 A2999 RMK A01 T01700135  RH  080%=      5-min Rain = 0
KBY1 160939Z 00004KT 17/14 A2999 RMK A01 T01700137  RH  081%=      5-min Rain = 0
KBY1 160940Z 00005KT 17/14 A2999 RMK A01 T01700138  RH  082%=      5-min Rain = 0
KBY1 160941Z 01005KT 17/14 A2999 RMK A01 T01690138  RH  082%=      5-min Rain = 0
KBY1 160942Z 01004KT 17/14 A2999 RMK A01 T01680140  RH  083%=      5-min Rain = 0
KBY1 160943Z 01004KT 17/14 A2999 RMK A01 T01680139  RH  083%=      5-min Rain = 0
KBY1 160944Z 01005KT 17/14 A2999 RMK A01 T01680140  RH  084%=      5-min Rain = 0
KBY1 160945Z 01005KT 17/14 A2999 RMK A01 T01680138  RH  083%=      5-min Rain = 0
KBY1 160946Z 01006KT 17/14 A2999 RMK A01 T01680137  RH  082%=      5-min Rain = 0
KBY1 160947Z 01007KT 17/14 A2999 RMK A01 T01680136  RH  081%=      5-min Rain = 0
KBY1 160948Z 00007KT 17/14 A2999 RMK A01 T01690137  RH  081%=      5-min Rain = 0
KBY1 160949Z 36007KT 17/14 A2999 RMK A01 T01690138  RH  082%=      5-min Rain = 0
KBY1 160950Z 00008KT 17/14 A2999 RMK A01 T01680138  RH  082%=      5-min Rain = 0
KBY1 160951Z 00009KT 17/14 A2999 RMK A01 T01680137  RH  082%=      5-min Rain = 0
KBY1 160952Z 01009KT 17/14 A2999 RMK A01 T01680136  RH  082%=      5-min Rain = 0
KBY1 160953Z 02010KT 17/14 A2999 RMK A01 T01680136  RH  081%=      5-min Rain = 0
KBY1 160954Z 02010KT 17/14 A2998 RMK A01 T01680135  RH  081%=      5-min Rain = 0
KBY1 160955Z 02011KT 17/14 A2998 RMK A01 T01690135  RH  080%=      5-min Rain = 0
KBY1 160956Z 02011KT 17/13 A2998 RMK A01 T01690134  RH  080%=      5-min Rain = 0
KBY1 160957Z 02010KT 17/13 A2998 RMK A01 T01700134  RH  079%=      5-min Rain = 0
KBY1 160958Z 02010KT 17/13 A2998 RMK A01 T01700134  RH  079%=      5-min Rain = 0
KBY1 160959Z 02011KT 17/13 A2998 RMK A01 T01700134  RH  079%=      5-min Rain = 0
KBY1 161000Z 02009KT 17/13 A2998 RMK A01 T01710134  RH  079%=      5-min Rain = 0
KBY1 161001Z 02008KT 17/14 A2998 RMK A01 T01710135  RH  080%=      5-min Rain = 0
KBY1 161002Z 02008KT 17/14 A2998 RMK A01 T01700136  RH  080%=      5-min Rain = 0
KBY1 161003Z 03006KT 17/14 A2998 RMK A01 T01700136  RH  080%=      5-min Rain = 0
KBY1 161004Z 03006KT 17/14 A2998 RMK A01 T01700137  RH  081%=      5-min Rain = 0
KBY1 161005Z 04005KT 17/14 A2999 RMK A01 T01690136  RH  081%=      5-min Rain = 0
KBY1 161006Z 04005KT 17/14 A2999 RMK A01 T01690137  RH  081%=      5-min Rain = 0
KBY1 161007Z 03004KT 17/14 A2999 RMK A01 T01690137  RH  081%=      5-min Rain = 0
KBY1 161008Z 03003KT 17/14 A2999 RMK A01 T01680136  RH  081%=      5-min Rain = 0
KBY1 161009Z 02004KT 17/14 A2999 RMK A01 T01680137  RH  082%=      5-min Rain = 0
KBY1 161010Z 01003KT 17/14 A2999 RMK A01 T01690136  RH  081%=      5-min Rain = 0
KBY1 161011Z 00004KT 17/14 A2999 RMK A01 T01690137  RH  082%=      5-min Rain = 0
KBY1 161012Z 01005KT 17/14 A2999 RMK A01 T01690138  RH  082%=      5-min Rain = 0
KBY1 161013Z 01005KT 17/14 A2999 RMK A01 T01690138  RH  082%=      5-min Rain = 0
KBY1 161014Z 01005KT 17/14 A2999 RMK A01 T01690138  RH  082%=      5-min Rain = 0
KBY1 161015Z 02006KT 17/14 A2999 RMK A01 T01690138  RH  082%=      5-min Rain = 0
KBY1 161016Z 03006KT 17/14 A2999 RMK A01 T01690138  RH  082%=      5-min Rain = 0
KBY1 161017Z 04004KT 17/14 A2999 RMK A01 T01690139  RH  082%=      5-min Rain = 0
KBY1 161018Z 04004KT 17/14 A2999 RMK A01 T01690139  RH  083%=      5-min Rain = 0
KBY1 161019Z 04004KT 17/14 A30 RMK A01 T01680138  RH  082%=      5-min Rain = 0
KBY1 161020Z 04003KT 17/14 A30 RMK A01 T01680139  RH  083%=      5-min Rain = 0
KBY1 161021Z 01003KT 17/14 A30 RMK A01 T01680139  RH  083%=      5-min Rain = 0
KBY1 161022Z 01002KT 17/14 A30 RMK A01 T01680139  RH  083%=      5-min Rain = 0
KBY1 161023Z 36002KT 17/14 A30 RMK A01 T01680138  RH  082%=      5-min Rain = 0
KBY1 161024Z 01003KT 17/14 A30 RMK A01 T01680137  RH  082%=      5-min Rain = 0
KBY1 161025Z 01004KT 17/14 A30 RMK A01 T01690138  RH  082%=      5-min Rain = 0
KBY1 161026Z 02004KT 17/14 A30 RMK A01 T01690137  RH  082%=      5-min Rain = 0
KBY1 161027Z 02006KT 17/14 A30 RMK A01 T01690137  RH  082%=      5-min Rain = 0
KBY1 161028Z 02007KT 17/14 A30 RMK A01 T01690137  RH  082%=      5-min Rain = 0
KBY1 161029Z 03007KT 17/14 A30 RMK A01 T01690138  RH  082%=      5-min Rain = 0
KBY1 161030Z 03008KT 17/14 A30 RMK A01 T01690138  RH  082%=      5-min Rain = 0
KBY1 161031Z 03009KT 17/14 A30 RMK A01 T01690139  RH  083%=      5-min Rain = 0
KBY1 161032Z 03009KT 17/14 A2999 RMK A01 T01690139  RH  083%=      5-min Rain = 0
KBY1 161033Z 03008KT 17/14 A2999 RMK A01 T01680138  RH  082%=      5-min Rain = 0
KBY1 161034Z 03008KT 17/14 A2999 RMK A01 T01680138  RH  082%=      5-min Rain = 0
KBY1 161035Z 03007KT 17/14 A2999 RMK A01 T01680138  RH  082%=      5-min Rain = 0
KBY1 161036Z 03007KT 17/14 A2999 RMK A01 T01680138  RH  082%=      5-min Rain = 0
KBY1 161037Z 03006KT 17/14 A30 RMK A01 T01680139  RH  083%=      5-min Rain = 0
KBY1 161038Z 02006KT 17/14 A30 RMK A01 T01680138  RH  083%=      5-min Rain = 0
KBY1 161039Z 02005KT 17/14 A30 RMK A01 T01680139  RH  083%=      5-min Rain = 0
KBY1 161040Z 02005KT 17/14 A30 RMK A01 T01680139  RH  083%=      5-min Rain = 0
KBY1 161041Z 03005KT 17/14 A30 RMK A01 T01670139  RH  083%=      5-min Rain = 0
KBY1 161042Z 03005KT 17/14 A30 RMK A01 T01670140  RH  084%=      5-min Rain = 0
KBY1 161043Z 02005KT 17/14 A30 RMK A01 T01670140  RH  084%=      5-min Rain = 0
KBY1 161044Z 02006KT 17/14 A30 RMK A01 T01670140  RH  084%=      5-min Rain = 0
KBY1 161045Z 02006KT 17/14 A30 RMK A01 T01670140  RH  084%=      5-min Rain = 0
KBY1 161046Z 01004KT 17/14 A30 RMK A01 T01670139  RH  084%=      5-min Rain = 0
KBY1 161047Z 02005KT 17/14 A30 RMK A01 T01670141  RH  084%=      5-min Rain = 0
KBY1 161048Z 02005KT 17/14 A30 RMK A01 T01670140  RH  084%=      5-min Rain = 0
KBY1 161049Z 02005KT 17/14 A30 RMK A01 T01670140  RH  084%=      5-min Rain = 0
KBY1 161050Z 02004KT 17/14 A30 RMK A01 T01670140  RH  084%=      5-min Rain = 0
KBY1 161051Z 02003KT 17/14 A30 RMK A01 T01670141  RH  085%=      5-min Rain = 0
KBY1 161052Z 02003KT 17/14 A30 RMK A01 T01660141  RH  085%=      5-min Rain = 0
KBY1 161053Z 01003KT 17/14 A30 RMK A01 T01660140  RH  084%=      5-min Rain = 0
KBY1 161054Z 36002KT 17/14 A30 RMK A01 T01660139  RH  084%=      5-min Rain = 0
KBY1 161055Z 34002KT 17/14 A30 RMK A01 T01660139  RH  084%=      5-min Rain = 0
KBY1 161056Z 34001KT 17/14 A30 RMK A01 T01660139  RH  084%=      5-min Rain = 0
KBY1 161057Z 34001KT 17/14 A30 RMK A01 T01670141  RH  085%=      5-min Rain = 0
KBY1 161058Z 35002KT 17/14 A30 RMK A01 T01670141  RH  085%=      5-min Rain = 0
KBY1 161059Z 35003KT 17/14 A30 RMK A01 T01670142  RH  085%=      5-min Rain = 0
KBY1 161100Z 36003KT 17/14 A30 RMK A01 T01660141  RH  085%=      5-min Rain = 0
KBY1 161101Z 36004KT 17/14 A30 RMK A01 T01660141  RH  085%=      5-min Rain = 0
KBY1 161102Z 36004KT 17/14 A30 RMK A01 T01660142  RH  086%=      5-min Rain = 0
KBY1 161103Z 00005KT 17/14 A30 RMK A01 T01660142  RH  086%=      5-min Rain = 0
KBY1 161104Z 00005KT 17/14 A30 RMK A01 T01660142  RH  086%=      5-min Rain = 0
KBY1 161105Z 00005KT 17/14 A30 RMK A01 T01650141  RH  086%=      5-min Rain = 0
KBY1 161106Z 01005KT 17/14 A30 RMK A01 T01650141  RH  085%=      5-min Rain = 0
KBY1 161107Z 01005KT 17/14 A30 RMK A01 T01650141  RH  086%=      5-min Rain = 0
KBY1 161108Z 01005KT 17/14 A30 RMK A01 T01650141  RH  086%=      5-min Rain = 0
KBY1 161109Z 01004KT 17/14 A2999 RMK A01 T01650141  RH  085%=      5-min Rain = 0
KBY1 161110Z 01004KT 17/14 A2999 RMK A01 T01650140  RH  085%=      5-min Rain = 0
KBY1 161111Z 01004KT 17/14 A2999 RMK A01 T01650140  RH  085%=      5-min Rain = 0
KBY1 161112Z 00005KT 17/14 A2999 RMK A01 T01650140  RH  085%=      5-min Rain = 0
KBY1 161113Z 00005KT 17/14 A2999 RMK A01 T01650141  RH  085%=      5-min Rain = 0
KBY1 161114Z 00005KT 17/14 A2999 RMK A01 T01650142  RH  086%=      5-min Rain = 0
KBY1 161115Z 35005KT 17/14 A2999 RMK A01 T01650142  RH  086%=      5-min Rain = 0
KBY1 161116Z 36004KT 17/14 A2999 RMK A01 T01660142  RH  086%=      5-min Rain = 0
KBY1 161117Z 36004KT 17/14 A2999 RMK A01 T01660142  RH  086%=      5-min Rain = 0
KBY1 161118Z 35003KT 17/14 A2999 RMK A01 T01660142  RH  086%=      5-min Rain = 0
KBY1 161119Z 34004KT 17/14 A30 RMK A01 T01660142  RH  086%=      5-min Rain = 0
KBY1 161120Z 33003KT 17/14 A30 RMK A01 T01650142  RH  086%=      5-min Rain = 0
KBY1 161121Z 34004KT 17/14 A30 RMK A01 T01650142  RH  086%=      5-min Rain = 0
KBY1 161122Z 33004KT 17/14 A30 RMK A01 T01650142  RH  086%=      5-min Rain = 0
KBY1 161123Z 33004KT 17/14 A30 RMK A01 T01650143  RH  087%=      5-min Rain = 0
KBY1 161124Z 33004KT 17/14 A30 RMK A01 T01650144  RH  087%=      5-min Rain = 0
KBY1 161125Z 32003KT 16/14 A30 RMK A01 T01640144  RH  088%=      5-min Rain = 0
KBY1 161126Z 32003KT 16/14 A30 RMK A01 T01640143  RH  088%=      5-min Rain = 0
KBY1 161127Z 33003KT 16/14 A30 RMK A01 T01640144  RH  088%=      5-min Rain = 0
KBY1 161128Z 33004KT 16/14 A30 RMK A01 T01640144  RH  088%=      5-min Rain = 0
KBY1 161129Z 32004KT 16/14 A30 RMK A01 T01640144  RH  088%=      5-min Rain = 0
KBY1 161130Z 32004KT 16/14 A30 RMK A01 T01630144  RH  088%=      5-min Rain = 0
KBY1 161131Z 32004KT 16/14 A30 RMK A01 T01630144  RH  088%=      5-min Rain = 0
KBY1 161132Z 32003KT 16/14 A30 RMK A01 T01630144  RH  088%=      5-min Rain = 0
KBY1 161133Z 32003KT 16/14 A30 RMK A01 T01630144  RH  088%=      5-min Rain = 0
KBY1 161134Z 33004KT 16/14 A30 RMK A01 T01630144  RH  088%=      5-min Rain = 0
KBY1 161135Z 33004KT 16/15 A30 RMK A01 T01630145  RH  089%=      5-min Rain = 0
KBY1 161136Z 32003KT 16/15 A30 RMK A01 T01630145  RH  089%=      5-min Rain = 0
KBY1 161137Z 32003KT 16/15 A30 RMK A01 T01630145  RH  089%=      5-min Rain = 0
KBY1 161138Z 32004KT 16/14 A30 RMK A01 T01630144  RH  089%=      5-min Rain = 0
KBY1 161139Z 31004KT 16/14 A30 RMK A01 T01630143  RH  088%=      5-min Rain = 0
KBY1 161140Z 31004KT 16/14 A30 RMK A01 T01630143  RH  087%=      5-min Rain = 0
KBY1 161141Z 31004KT 16/14 A30 RMK A01 T01640143  RH  087%=      5-min Rain = 0
KBY1 161142Z 30004KT 16/14 A30 RMK A01 T01640143  RH  087%=      5-min Rain = 0
KBY1 161143Z 31004KT 16/14 A30 RMK A01 T01640143  RH  087%=      5-min Rain = 0
KBY1 161144Z 30004KT 16/14 A30 RMK A01 T01640142  RH  087%=      5-min Rain = 0
KBY1 161145Z 29003KT 16/14 A30 RMK A01 T01640142  RH  087%=      5-min Rain = 0
KBY1 161146Z 28003KT 16/14 A30 RMK A01 T01640142  RH  087%=      5-min Rain = 0
KBY1 161147Z 28003KT 16/14 A30 RMK A01 T01640142  RH  087%=      5-min Rain = 0
KBY1 161148Z 28002KT 16/14 A30 RMK A01 T01640142  RH  087%=      5-min Rain = 0
KBY1 161149Z 27003KT 16/14 A30 RMK A01 T01640142  RH  087%=      5-min Rain = 0
KBY1 161150Z 27003KT 16/14 A30 RMK A01 T01640143  RH  087%=      5-min Rain = 0
KBY1 161151Z 27003KT 16/14 A30 RMK A01 T01640142  RH  087%=      5-min Rain = 0
KBY1 161152Z 26003KT 16/14 A30 RMK A01 T01640143  RH  087%=      5-min Rain = 0
KBY1 161153Z 26002KT 16/14 A30 RMK A01 T01640144  RH  088%=      5-min Rain = 0
KBY1 161154Z 25002KT 16/14 A30 RMK A01 T01640144  RH  088%=      5-min Rain = 0
KBY1 161155Z 25002KT 16/15 A30 RMK A01 T01630145  RH  089%=      5-min Rain = 0
KBY1 161156Z 25003KT 16/15 A30 RMK A01 T01630145  RH  089%=      5-min Rain = 0
KBY1 161157Z 25003KT 16/15 A30 RMK A01 T01620146  RH  090%=      5-min Rain = 0
KBY1 161158Z 25003KT 16/15 A30 RMK A01 T01620146  RH  090%=      5-min Rain = 0
KBY1 161159Z 25003KT 16/15 A30 RMK A01 T01610146  RH  091%=      5-min Rain = 0
KBY1 161200Z 25003KT 16/15 A30 RMK A01 T01610147  RH  091%=      5-min Rain = 0
KBY1 161201Z 24003KT 16/15 A30 RMK A01 T01600147  RH  092%=      5-min Rain = 0
KBY1 161202Z 25003KT 16/15 A30 RMK A01 T01600148  RH  092%=      5-min Rain = 0
KBY1 161203Z 25003KT 16/15 A30 RMK A01 T01590148  RH  093%=      5-min Rain = 0
KBY1 161204Z 25003KT 16/15 A30 RMK A01 T01590148  RH  093%=      5-min Rain = 0
KBY1 161205Z 26003KT 16/15 A30 RMK A01 T01590147  RH  093%=      5-min Rain = 0
KBY1 161206Z 27003KT 16/15 A30 RMK A01 T01590148  RH  093%=      5-min Rain = 0
KBY1 161207Z 27003KT 16/15 A30 RMK A01 T01590147  RH  092%=      5-min Rain = 0
KBY1 161208Z 27004KT 16/15 A30 RMK A01 T01590145  RH  091%=      5-min Rain = 0
KBY1 161209Z 27003KT 16/14 A30 RMK A01 T01600143  RH  090%=      5-min Rain = 0
KBY1 161210Z 26003KT 16/14 A30 RMK A01 T01610144  RH  089%=      5-min Rain = 0
KBY1 161211Z 27003KT 16/14 A30 RMK A01 T01620143  RH  089%=      5-min Rain = 0
KBY1 161212Z 27003KT 16/14 A30 RMK A01 T01620142  RH  088%=      5-min Rain = 0
KBY1 161213Z 28003KT 16/14 A30 RMK A01 T01630144  RH  089%=      5-min Rain = 0
KBY1 161214Z 27003KT 16/14 A30 RMK A01 T01630144  RH  089%=      5-min Rain = 0
KBY1 161215Z 27004KT 16/14 A30 RMK A01 T01630144  RH  089%=      5-min Rain = 0
KBY1 161216Z 27004KT 16/14 A30 RMK A01 T01630143  RH  088%=      5-min Rain = 0
KBY1 161217Z 26004KT 16/14 A30 RMK A01 T01630144  RH  089%=      5-min Rain = 0
KBY1 161218Z 26004KT 16/15 A30 RMK A01 T01630145  RH  089%=      5-min Rain = 0
KBY1 161219Z 26004KT 16/15 A30 RMK A01 T01630145  RH  089%=      5-min Rain = 0
KBY1 161220Z 26004KT 16/15 A30 RMK A01 T01630145  RH  089%=      5-min Rain = 0
KBY1 161221Z 26005KT 16/15 A30 RMK A01 T01630145  RH  089%=      5-min Rain = 0
KBY1 161222Z 26004KT 16/15 A30 RMK A01 T01630145  RH  089%=      5-min Rain = 0
KBY1 161223Z 25005KT 16/15 A30 RMK A01 T01630146  RH  089%=      5-min Rain = 0
KBY1 161224Z 25005KT 16/15 A30 RMK A01 T01630145  RH  089%=      5-min Rain = 0
KBY1 161225Z 25005KT 16/15 A30 RMK A01 T01620145  RH  089%=      5-min Rain = 0
KBY1 161226Z 25004KT 16/15 A30 RMK A01 T01630145  RH  089%=      5-min Rain = 0
KBY1 161227Z 26004KT 16/15 A30 RMK A01 T01630145  RH  089%=      5-min Rain = 0
KBY1 161228Z 26005KT 16/15 A30 RMK A01 T01630146  RH  090%=      5-min Rain = 0
KBY1 161229Z 26005KT 16/15 A30 RMK A01 T01630147  RH  090%=      5-min Rain = 0
KBY1 161230Z 26005KT 16/15 A30 RMK A01 T01630147  RH  090%=      5-min Rain = 0
KBY1 161231Z 26005KT 16/15 A30 RMK A01 T01620146  RH  090%=      5-min Rain = 0
KBY1 161232Z 27006KT 16/15 A30 RMK A01 T01630146  RH  090%=      5-min Rain = 0
KBY1 161233Z 27006KT 16/15 A30 RMK A01 T01630146  RH  090%=      5-min Rain = 0
KBY1 161234Z 27006KT 16/15 A30 RMK A01 T01630145  RH  089%=      5-min Rain = 0
KBY1 161235Z 27006KT 16/14 A30 RMK A01 T01630144  RH  089%=      5-min Rain = 0
KBY1 161236Z 27005KT 16/14 A30 RMK A01 T01630144  RH  089%=      5-min Rain = 0
KBY1 161237Z 27005KT 16/15 A30 RMK A01 T01630145  RH  089%=      5-min Rain = 0
KBY1 161238Z 26004KT 16/15 A30 RMK A01 T01630145  RH  089%=      5-min Rain = 0
KBY1 161239Z 27006KT 16/15 A30 RMK A01 T01630145  RH  089%=      5-min Rain = 0
KBY1 161240Z 26007KT 16/15 A30 RMK A01 T01630145  RH  089%=      5-min Rain = 0
KBY1 161241Z 26006KT 16/15 A30 RMK A01 T01640145  RH  089%=      5-min Rain = 0
KBY1 161242Z 26006KT 16/15 A30 RMK A01 T01640145  RH  089%=      5-min Rain = 0
KBY1 161243Z 26005KT 16/15 A30 RMK A01 T01640146  RH  089%=      5-min Rain = 0
KBY1 161244Z 25006KT 16/15 A2999 RMK A01 T01640146  RH  089%=      5-min Rain = 0
KBY1 161245Z 25006KT 16/15 A2999 RMK A01 T01640146  RH  089%=      5-min Rain = 0
KBY1 161246Z 24006KT 16/15 A2999 RMK A01 T01640147  RH  090%=      5-min Rain = 0
KBY1 161247Z 24006KT 16/15 A2999 RMK A01 T01640147  RH  090%=      5-min Rain = 0
KBY1 161248Z 24005KT 16/15 A2999 RMK A01 T01640147  RH  089%=      5-min Rain = 0
KBY1 161249Z 24006KT 16/15 A2999 RMK A01 T01640146  RH  089%=      5-min Rain = 0
KBY1 161250Z 24006KT 16/15 A2999 RMK A01 T01640147  RH  089%=      5-min Rain = 0
KBY1 161251Z 24007KT 16/15 A2999 RMK A01 T01640146  RH  089%=      5-min Rain = 0
KBY1 161252Z 25005KT 17/15 A2999 RMK A01 T01650146  RH  089%=      5-min Rain = 0
KBY1 161253Z 25006KT 17/15 A2999 RMK A01 T01650147  RH  089%=      5-min Rain = 0
KBY1 161254Z 25005KT 17/15 A2999 RMK A01 T01650147  RH  089%=      5-min Rain = 0
KBY1 161255Z 25007KT 17/15 A2999 RMK A01 T01660147  RH  089%=      5-min Rain = 0
KBY1 161256Z 26007KT 17/15 A2999 RMK A01 T01660146  RH  088%=      5-min Rain = 0
KBY1 161257Z 26006KT 17/15 A2999 RMK A01 T01660147  RH  088%=      5-min Rain = 0
KBY1 161258Z 26006KT 17/15 A2999 RMK A01 T01670147  RH  088%=      5-min Rain = 0
KBY1 161259Z 26008KT 17/15 A2999 RMK A01 T01670147  RH  088%=      5-min Rain = 0
KBY1 161300Z 26006KT 17/15 A2999 RMK A01 T01670147  RH  088%=      5-min Rain = 0
KBY1 161301Z 26006KT 17/15 A2999 RMK A01 T01670148  RH  088%=      5-min Rain = 0
KBY1 161302Z 26006KT 17/15 A2999 RMK A01 T01670148  RH  088%=      5-min Rain = 0
KBY1 161303Z 25007KT 17/15 A30 RMK A01 T01670147  RH  088%=      5-min Rain = 0
KBY1 161304Z 26007KT 17/15 A30 RMK A01 T01670147  RH  088%=      5-min Rain = 0
KBY1 161305Z 25007KT 17/15 A30 RMK A01 T01670147  RH  088%=      5-min Rain = 0
KBY1 161306Z 25006KT 17/15 A30 RMK A01 T01680147  RH  087%=      5-min Rain = 0
KBY1 161307Z 26006KT 17/15 A30 RMK A01 T01680147  RH  088%=      5-min Rain = 0
KBY1 161308Z 26005KT 17/15 A30 RMK A01 T01680148  RH  088%=      5-min Rain = 0
KBY1 161309Z 27006KT 17/15 A30 RMK A01 T01680149  RH  088%=      5-min Rain = 0
KBY1 161310Z 26007KT 17/15 A30 RMK A01 T01680148  RH  088%=      5-min Rain = 0
KBY1 161311Z 26006KT 17/15 A30 RMK A01 T01680149  RH  088%=      5-min Rain = 0
KBY1 161312Z 27006KT 17/15 A30 RMK A01 T01680148  RH  088%=      5-min Rain = 0
KBY1 161313Z 27005KT 17/15 A30 RMK A01 T01690149  RH  088%=      5-min Rain = 0
KBY1 161314Z 27006KT 17/15 A30 RMK A01 T01690148  RH  087%=      5-min Rain = 0
KBY1 161315Z 27006KT 17/15 A30 RMK A01 T01690148  RH  088%=      5-min Rain = 0
KBY1 161316Z 28005KT 17/15 A30 RMK A01 T01690148  RH  088%=      5-min Rain = 0
KBY1 161317Z 28005KT 17/15 A30 RMK A01 T01690149  RH  088%=      5-min Rain = 0
KBY1 161318Z 28005KT 17/15 A30 RMK A01 T01690148  RH  088%=      5-min Rain = 0
KBY1 161319Z 28005KT 17/15 A30 RMK A01 T01690148  RH  087%=      5-min Rain = 0
KBY1 161320Z 27005KT 17/15 A30 RMK A01 T01690147  RH  087%=      5-min Rain = 0
KBY1 161321Z 26006KT 17/15 A30 RMK A01 T01690147  RH  087%=      5-min Rain = 0
KBY1 161322Z 26007KT 17/15 A30 RMK A01 T01700148  RH  087%=      5-min Rain = 0
KBY1 161323Z 27007KT 17/15 A30 RMK A01 T01700148  RH  087%=      5-min Rain = 0
KBY1 161324Z 27006KT 17/15 A30 RMK A01 T01700149  RH  087%=      5-min Rain = 0
KBY1 161325Z 27005KT 17/15 A30 RMK A01 T01700150  RH  088%=      5-min Rain = 0
KBY1 161326Z 28004KT 17/15 A30 RMK A01 T01700149  RH  087%=      5-min Rain = 0
KBY1 161327Z 27005KT 17/15 A30 RMK A01 T01700149  RH  087%=      5-min Rain = 0
KBY1 161328Z 27006KT 17/15 A30 RMK A01 T01700148  RH  087%=      5-min Rain = 0
KBY1 161329Z 27006KT 17/15 A30 RMK A01 T01700149  RH  087%=      5-min Rain = 0
KBY1 161330Z 27006KT 17/15 A30 RMK A01 T01700148  RH  087%=      5-min Rain = 0
KBY1 161331Z 28004KT 17/15 A30 RMK A01 T01710149  RH  087%=      5-min Rain = 0
KBY1 161332Z 27006KT 17/15 A30 RMK A01 T01710149  RH  087%=      5-min Rain = 0
KBY1 161333Z 28005KT 17/15 A30 RMK A01 T01710149  RH  087%=      5-min Rain = 0
KBY1 161334Z 28005KT 17/15 A30 RMK A01 T01710149  RH  087%=      5-min Rain = 0
KBY1 161335Z 29006KT 17/15 A30 RMK A01 T01710149  RH  087%=      5-min Rain = 0
KBY1 161336Z 28007KT 17/15 A30 RMK A01 T01710149  RH  087%=      5-min Rain = 0
KBY1 161337Z 28005KT 17/15 A30 RMK A01 T01710150  RH  087%=      5-min Rain = 0
KBY1 161338Z 29006KT 17/15 A30 RMK A01 T01720150  RH  087%=      5-min Rain = 0
KBY1 161339Z 29005KT 17/15 A30 RMK A01 T01710150  RH  087%=      5-min Rain = 0
KBY1 161340Z 28005KT 17/15 A30 RMK A01 T01720149  RH  086%=      5-min Rain = 0
KBY1 161341Z 28005KT 17/15 A30 RMK A01 T01720149  RH  086%=      5-min Rain = 0
KBY1 161342Z 29005KT 17/15 A30 RMK A01 T01720150  RH  087%=      5-min Rain = 0
KBY1 161343Z 27006KT 17/15 A30 RMK A01 T01720150  RH  087%=      5-min Rain = 0
KBY1 161344Z 27006KT 17/15 A30 RMK A01 T01720149  RH  086%=      5-min Rain = 0
KBY1 161345Z 27006KT 17/15 A30 RMK A01 T01720149  RH  086%=      5-min Rain = 0
KBY1 161346Z 29005KT 17/15 A30 RMK A01 T01720149  RH  086%=      5-min Rain = 0
KBY1 161347Z 30005KT 17/15 A3001 RMK A01 T01730150  RH  086%=      5-min Rain = 0
KBY1 161348Z 29005KT 17/15 A3001 RMK A01 T01730149  RH  086%=      5-min Rain = 0
KBY1 161349Z 28004KT 17/15 A3001 RMK A01 T01730150  RH  086%=      5-min Rain = 0
KBY1 161350Z 27002KT 17/15 A30 RMK A01 T01730151  RH  087%=      5-min Rain = 0
KBY1 161351Z 26004KT 17/15 A3001 RMK A01 T01730152  RH  087%=      5-min Rain = 0
KBY1 161352Z 27005KT 17/15 A3001 RMK A01 T01730151  RH  087%=      5-min Rain = 0
KBY1 161353Z 27004KT 17/15 A3001 RMK A01 T01730151  RH  087%=      5-min Rain = 0
KBY1 161354Z 28005KT 17/15 A3001 RMK A01 T01730152  RH  087%=      5-min Rain = 0
KBY1 161355Z 29006KT 17/15 A3001 RMK A01 T01730151  RH  087%=      5-min Rain = 0
KBY1 161356Z 29005KT 17/15 A3001 RMK A01 T01730151  RH  087%=      5-min Rain = 0
KBY1 161357Z 27005KT 17/15 A3001 RMK A01 T01730151  RH  087%=      5-min Rain = 0
KBY1 161358Z 28004KT 17/15 A3001 RMK A01 T01730152  RH  087%=      5-min Rain = 0
KBY1 161359Z 29005KT 17/15 A3001 RMK A01 T01730151  RH  087%=      5-min Rain = 0
KBY1 161400Z 30004KT 17/15 A3001 RMK A01 T01730150  RH  086%=      5-min Rain = 0
KBY1 161401Z 29004KT 17/15 A3001 RMK A01 T01730151  RH  087%=      5-min Rain = 0
KBY1 161402Z 30005KT 17/15 A3001 RMK A01 T01740151  RH  087%=      5-min Rain = 0
KBY1 161403Z 29004KT 17/15 A3001 RMK A01 T01740151  RH  086%=      5-min Rain = 0
KBY1 161404Z 30003KT 17/15 A3002 RMK A01 T01740151  RH  086%=      5-min Rain = 0
KBY1 161405Z 31006KT 17/15 A3002 RMK A01 T01740151  RH  086%=      5-min Rain = 0
KBY1 161406Z 31005KT 17/15 A3002 RMK A01 T01740150  RH  086%=      5-min Rain = 0
KBY1 161407Z 30005KT 17/15 A3002 RMK A01 T01740151  RH  086%=      5-min Rain = 0
KBY1 161408Z 29005KT 17/15 A3002 RMK A01 T01740150  RH  086%=      5-min Rain = 0
KBY1 161409Z 28004KT 17/15 A3001 RMK A01 T01740150  RH  086%=      5-min Rain = 0
KBY1 161410Z 28004KT 17/15 A3002 RMK A01 T01740151  RH  086%=      5-min Rain = 0
KBY1 161411Z 29004KT 17/15 A3002 RMK A01 T01740152  RH  087%=      5-min Rain = 0
KBY1 161412Z 30005KT 17/15 A3002 RMK A01 T01740151  RH  086%=      5-min Rain = 0
KBY1 161413Z 30005KT 17/15 A3002 RMK A01 T01740150  RH  086%=      5-min Rain = 0
KBY1 161414Z 30005KT 17/15 A3002 RMK A01 T01740151  RH  086%=      5-min Rain = 0
KBY1 161415Z 30004KT 18/15 A3002 RMK A01 T01750151  RH  086%=      5-min Rain = 0
KBY1 161416Z 30004KT 18/15 A3002 RMK A01 T01750152  RH  087%=      5-min Rain = 0
KBY1 161417Z 30003KT 18/15 A3002 RMK A01 T01750152  RH  086%=      5-min Rain = 0
KBY1 161418Z 30003KT 18/15 A3002 RMK A01 T01750151  RH  086%=      5-min Rain = 0
KBY1 161419Z 28003KT 18/15 A3002 RMK A01 T01750151  RH  086%=      5-min Rain = 0
KBY1 161420Z 30004KT 18/15 A3002 RMK A01 T01750152  RH  086%=      5-min Rain = 0
KBY1 161421Z 28003KT 18/15 A3002 RMK A01 T01750151  RH  086%=      5-min Rain = 0
KBY1 161422Z 30002KT 18/15 A3002 RMK A01 T01750152  RH  086%=      5-min Rain = 0
KBY1 161423Z 29003KT 18/15 A3002 RMK A01 T01760154  RH  087%=      5-min Rain = 0
KBY1 161424Z 28003KT 18/15 A3002 RMK A01 T01750151  RH  086%=      5-min Rain = 0
KBY1 161425Z 28003KT 18/15 A3002 RMK A01 T01760152  RH  086%=      5-min Rain = 0
KBY1 161426Z 29004KT 18/15 A3003 RMK A01 T01760153  RH  086%=      5-min Rain = 0
KBY1 161427Z 30003KT 18/15 A3003 RMK A01 T01760152  RH  086%=      5-min Rain = 0
KBY1 161428Z 30003KT 18/15 A3003 RMK A01 T01760152  RH  086%=      5-min Rain = 0
KBY1 161429Z 30002KT 18/15 A3003 RMK A01 T01760152  RH  086%=      5-min Rain = 0
KBY1 161430Z 30003KT 18/15 A3003 RMK A01 T01760152  RH  086%=      5-min Rain = 0
KBY1 161431Z 29005KT 18/15 A3003 RMK A01 T01770153  RH  086%=      5-min Rain = 0
KBY1 161432Z 29005KT 18/15 A3003 RMK A01 T01770151  RH  085%=      5-min Rain = 0
KBY1 161433Z 29004KT 18/15 A3003 RMK A01 T01770153  RH  086%=      5-min Rain = 0
KBY1 161434Z 29003KT 18/15 A3003 RMK A01 T01770154  RH  086%=      5-min Rain = 0
KBY1 161435Z 29004KT 18/16 A3003 RMK A01 T01780155  RH  086%=      5-min Rain = 0
KBY1 161436Z 29004KT 18/15 A3003 RMK A01 T01780152  RH  085%=      5-min Rain = 0
KBY1 161437Z 29005KT 18/15 A3003 RMK A01 T01780152  RH  085%=      5-min Rain = 0
KBY1 161438Z 28004KT 18/15 A3003 RMK A01 T01780153  RH  085%=      5-min Rain = 0
KBY1 161439Z 29003KT 18/15 A3003 RMK A01 T01780153  RH  085%=      5-min Rain = 0
KBY1 161440Z 29005KT 18/15 A3003 RMK A01 T01780153  RH  085%=      5-min Rain = 0
KBY1 161441Z 29004KT 18/15 A3003 RMK A01 T01790153  RH  085%=      5-min Rain = 0
KBY1 161442Z 29004KT 18/15 A3003 RMK A01 T01790152  RH  085%=      5-min Rain = 0
KBY1 161443Z 28003KT 18/15 A3003 RMK A01 T01790153  RH  085%=      5-min Rain = 0
KBY1 161444Z 27003KT 18/16 A3003 RMK A01 T01790155  RH  086%=      5-min Rain = 0
KBY1 161445Z 28003KT 18/15 A3003 RMK A01 T01790153  RH  085%=      5-min Rain = 0
KBY1 161446Z 28002KT 18/15 A3003 RMK A01 T01800154  RH  085%=      5-min Rain = 0
KBY1 161447Z 27003KT 18/15 A3003 RMK A01 T01800154  RH  085%=      5-min Rain = 0
KBY1 161448Z 28002KT 18/15 A3003 RMK A01 T01800153  RH  084%=      5-min Rain = 0
KBY1 161449Z 28003KT 18/15 A3003 RMK A01 T01800154  RH  085%=      5-min Rain = 0
KBY1 161450Z 25004KT 18/15 A3003 RMK A01 T01810154  RH  084%=      5-min Rain = 0
KBY1 161451Z 27005KT 18/15 A3003 RMK A01 T01810152  RH  083%=      5-min Rain = 0
KBY1 161452Z 27005KT 18/15 A3003 RMK A01 T01810152  RH  083%=      5-min Rain = 0
KBY1 161453Z 26004KT 18/15 A3003 RMK A01 T01810154  RH  084%=      5-min Rain = 0
KBY1 161454Z 26006KT 18/15 A3003 RMK A01 T01810153  RH  084%=      5-min Rain = 0
KBY1 161455Z 27005KT 18/15 A3003 RMK A01 T01820152  RH  083%=      5-min Rain = 0
KBY1 161456Z 27004KT 18/15 A3003 RMK A01 T01810152  RH  083%=      5-min Rain = 0
KBY1 161457Z 27003KT 18/16 A3003 RMK A01 T01820155  RH  084%=      5-min Rain = 0
KBY1 161458Z 27004KT 18/15 A3003 RMK A01 T01820154  RH  083%=      5-min Rain = 0
KBY1 161459Z 27005KT 18/15 A3003 RMK A01 T01820153  RH  083%=      5-min Rain = 0
KBY1 161500Z 28004KT 18/15 A3003 RMK A01 T01820152  RH  082%=      5-min Rain = 0
KBY1 161501Z 28003KT 18/15 A3003 RMK A01 T01830151  RH  082%=      5-min Rain = 0
KBY1 161502Z 28003KT 18/15 A3003 RMK A01 T01830154  RH  083%=      5-min Rain = 0
KBY1 161503Z 28004KT 18/15 A3003 RMK A01 T01840153  RH  082%=      5-min Rain = 0
KBY1 161504Z 27005KT 18/15 A3003 RMK A01 T01840152  RH  082%=      5-min Rain = 0
KBY1 161505Z 28004KT 18/15 A3003 RMK A01 T01840151  RH  081%=      5-min Rain = 0
KBY1 161506Z 25004KT 18/15 A3003 RMK A01 T01840154  RH  083%=      5-min Rain = 0
KBY1 161507Z 26004KT 18/15 A3003 RMK A01 T01840154  RH  082%=      5-min Rain = 0
KBY1 161508Z 26005KT 19/16 A3003 RMK A01 T01850155  RH  083%=      5-min Rain = 0
KBY1 161509Z 27005KT 19/15 A3003 RMK A01 T01850154  RH  082%=      5-min Rain = 0
KBY1 161510Z 28005KT 19/15 A3003 RMK A01 T01850152  RH  081%=      5-min Rain = 0
KBY1 161511Z 26004KT 19/15 A3003 RMK A01 T01850153  RH  082%=      5-min Rain = 0
KBY1 161512Z 26004KT 19/16 A3003 RMK A01 T01850156  RH  083%=      5-min Rain = 0
KBY1 161513Z 27005KT 19/15 A3003 RMK A01 T01860153  RH  081%=      5-min Rain = 0
KBY1 161514Z 26004KT 19/16 A3003 RMK A01 T01860155  RH  082%=      5-min Rain = 0
KBY1 161515Z 26003KT 19/15 A3003 RMK A01 T01850154  RH  082%=      5-min Rain = 0
KBY1 161516Z 26004KT 19/15 A3003 RMK A01 T01860153  RH  081%=      5-min Rain = 0
KBY1 161517Z 26004KT 19/16 A3003 RMK A01 T01860155  RH  082%=      5-min Rain = 0
KBY1 161518Z 25004KT 19/15 A3004 RMK A01 T01860154  RH  081%=      5-min Rain = 0
KBY1 161519Z 24004KT 19/15 A3004 RMK A01 T01860154  RH  082%=      5-min Rain = 0
KBY1 161520Z 25003KT 19/16 A3004 RMK A01 T01870157  RH  083%=      5-min Rain = 0
KBY1 161521Z 26004KT 19/16 A3004 RMK A01 T01870156  RH  082%=      5-min Rain = 0
KBY1 161522Z 26003KT 19/15 A3004 RMK A01 T01870153  RH  081%=      5-min Rain = 0
KBY1 161523Z 26003KT 19/16 A3004 RMK A01 T01870155  RH  082%=      5-min Rain = 0
KBY1 161524Z 27003KT 19/15 A3004 RMK A01 T01870154  RH  081%=      5-min Rain = 0
KBY1 161525Z 26003KT 19/15 A3004 RMK A01 T01870152  RH  080%=      5-min Rain = 0
KBY1 161526Z 26002KT 19/15 A3004 RMK A01 T01870153  RH  080%=      5-min Rain = 0
KBY1 161527Z 28002KT 19/15 A3004 RMK A01 T01870153  RH  081%=      5-min Rain = 0
KBY1 161528Z 29001KT 19/15 A3004 RMK A01 T01870152  RH  080%=      5-min Rain = 0
KBY1 161529Z 32000KT 19/15 A3004 RMK A01 T01870148  RH  078%=      5-min Rain = 0
KBY1 161530Z 30001KT 19/15 A3004 RMK A01 T01880150  RH  079%=      5-min Rain = 0
KBY1 161531Z 29000KT 19/15 A3004 RMK A01 T01880151  RH  079%=      5-min Rain = 0
KBY1 161532Z 00000KT 19/15 A3004 RMK A01 T01890151  RH  079%=      5-min Rain = 0
KBY1 161533Z 32001KT 19/15 A3004 RMK A01 T01890151  RH  078%=      5-min Rain = 0
KBY1 161534Z 01001KT 19/15 A3004 RMK A01 T01900150  RH  078%=      5-min Rain = 0
KBY1 161535Z 26000KT 19/15 A3004 RMK A01 T01910153  RH  078%=      5-min Rain = 0
KBY1 161536Z 23000KT 19/15 A3004 RMK A01 T01910150  RH  077%=      5-min Rain = 0
KBY1 161537Z 00000KT 19/15 A3004 RMK A01 T01920153  RH  078%=      5-min Rain = 0
KBY1 161538Z 31001KT 19/15 A3004 RMK A01 T01930151  RH  077%=      5-min Rain = 0
KBY1 161539Z 30002KT 19/15 A3004 RMK A01 T01930148  RH  075%=      5-min Rain = 0
KBY1 161540Z 32001KT 19/15 A3004 RMK A01 T01930148  RH  075%=      5-min Rain = 0
KBY1 161541Z 34002KT 19/15 A3004 RMK A01 T01930151  RH  076%=      5-min Rain = 0
KBY1 161542Z 35003KT 19/15 A3004 RMK A01 T01930150  RH  076%=      5-min Rain = 0
KBY1 161543Z 34004KT 19/15 A3004 RMK A01 T01920148  RH  076%=      5-min Rain = 0
KBY1 161544Z 33003KT 19/15 A3004 RMK A01 T01920145  RH  074%=      5-min Rain = 0
KBY1 161545Z 32002KT 19/15 A3004 RMK A01 T01920151  RH  077%=      5-min Rain = 0
KBY1 161546Z 31002KT 19/15 A3004 RMK A01 T01920154  RH  078%=      5-min Rain = 0
KBY1 161547Z 30002KT 19/15 A3004 RMK A01 T01930148  RH  075%=      5-min Rain = 0
KBY1 161548Z 31001KT 19/15 A3004 RMK A01 T01930149  RH  076%=      5-min Rain = 0
KBY1 161549Z 31003KT 19/15 A3004 RMK A01 T01930149  RH  076%=      5-min Rain = 0
KBY1 161550Z 32003KT 19/15 A3004 RMK A01 T01930149  RH  075%=      5-min Rain = 0
KBY1 161551Z 34002KT 19/15 A3004 RMK A01 T01940151  RH  076%=      5-min Rain = 0
KBY1 161552Z 34002KT 19/15 A3004 RMK A01 T01940154  RH  077%=      5-min Rain = 0
KBY1 161553Z 33003KT 20/15 A3004 RMK A01 T01950154  RH  077%=      5-min Rain = 0
KBY1 161554Z 33003KT 20/15 A3004 RMK A01 T01960151  RH  075%=      5-min Rain = 0
KBY1 161555Z 33004KT 20/15 A3004 RMK A01 T01960149  RH  074%=      5-min Rain = 0
KBY1 161556Z 32004KT 20/15 A3004 RMK A01 T01970150  RH  074%=      5-min Rain = 0
KBY1 161557Z 31004KT 20/15 A3004 RMK A01 T01970149  RH  074%=      5-min Rain = 0
KBY1 161558Z 32003KT 20/15 A3004 RMK A01 T01960146  RH  073%=      5-min Rain = 0
KBY1 161559Z 31002KT 20/15 A3004 RMK A01 T01960151  RH  075%=      5-min Rain = 0
KBY1 161600Z 31002KT 20/15 A3004 RMK A01 T01970148  RH  073%=      5-min Rain = 0
KBY1 161601Z 29003KT 20/15 A3004 RMK A01 T01970150  RH  074%=      5-min Rain = 0
KBY1 161602Z 29003KT 20/15 A3004 RMK A01 T01970145  RH  072%=      5-min Rain = 0
KBY1 161603Z 31003KT 20/16 A3004 RMK A01 T01980155  RH  076%=      5-min Rain = 0
KBY1 161604Z 31004KT 20/15 A3004 RMK A01 T01980152  RH  075%=      5-min Rain = 0
KBY1 161605Z 29004KT 20/15 A3004 RMK A01 T01990150  RH  073%=      5-min Rain = 0
KBY1 161606Z 30002KT 20/15 A3004 RMK A01 T01990147  RH  072%=      5-min Rain = 0
KBY1 161607Z 27001KT 20/15 A3004 RMK A01 T01990145  RH  071%=      5-min Rain = 0
KBY1 161608Z 29002KT 20/15 A3004 RMK A01 T01990152  RH  074%=      5-min Rain = 0
KBY1 161609Z 32003KT 20/15 A3004 RMK A01 T02010154  RH  075%=      5-min Rain = 0
KBY1 161610Z 31003KT 20/15 A3004 RMK A01 T02020154  RH  074%=      5-min Rain = 0
KBY1 161611Z 30003KT 20/15 A3004 RMK A01 T02030151  RH  072%=      5-min Rain = 0
KBY1 161612Z 30005KT 20/15 A3004 RMK A01 T02030150  RH  072%=      5-min Rain = 0
KBY1 161613Z 31006KT 20/15 A3004 RMK A01 T02030148  RH  070%=      5-min Rain = 0
KBY1 161614Z 31005KT 20/15 A3004 RMK A01 T02040146  RH  070%=      5-min Rain = 0
KBY1 161615Z 31003KT 20/15 A3004 RMK A01 T02040147  RH  070%=      5-min Rain = 0
KBY1 161616Z 32002KT 20/15 A3004 RMK A01 T02040147  RH  070%=      5-min Rain = 0
KBY1 161617Z 34004KT 20/15 A3004 RMK A01 T02040149  RH  070%=      5-min Rain = 0
KBY1 161618Z 33006KT 21/15 A3004 RMK A01 T02050149  RH  071%=      5-min Rain = 0
KBY1 161619Z 32003KT 21/15 A3004 RMK A01 T02050148  RH  070%=      5-min Rain = 0
KBY1 161620Z 28002KT 20/15 A3004 RMK A01 T02040152  RH  072%=      5-min Rain = 0
KBY1 161621Z 30003KT 21/15 A3004 RMK A01 T02050149  RH  070%=      5-min Rain = 0
KBY1 161622Z 32004KT 21/15 A3004 RMK A01 T02060153  RH  072%=      5-min Rain = 0
KBY1 161623Z 34004KT 21/15 A3004 RMK A01 T02070148  RH  069%=      5-min Rain = 0
KBY1 161624Z 34004KT 21/15 A3004 RMK A01 T02060145  RH  068%=      5-min Rain = 0
KBY1 161625Z 32005KT 21/15 A3004 RMK A01 T02050149  RH  070%=      5-min Rain = 0
KBY1 161626Z 31002KT 21/15 A3004 RMK A01 T02050148  RH  070%=      5-min Rain = 0
KBY1 161627Z 28001KT 21/15 A3004 RMK A01 T02050149  RH  070%=      5-min Rain = 0
KBY1 161628Z 36001KT 21/15 A3004 RMK A01 T02070152  RH  071%=      5-min Rain = 0
KBY1 161629Z 26002KT 21/15 A3003 RMK A01 T02080153  RH  071%=      5-min Rain = 0
KBY1 161630Z 28004KT 21/16 A3003 RMK A01 T02100156  RH  071%=      5-min Rain = 0
KBY1 161631Z 29004KT 21/15 A3003 RMK A01 T02100149  RH  068%=      5-min Rain = 0
KBY1 161632Z 30005KT 21/15 A3003 RMK A01 T02100150  RH  068%=      5-min Rain = 0
KBY1 161633Z 32004KT 21/15 A3003 RMK A01 T02100154  RH  070%=      5-min Rain = 0
KBY1 161634Z 32003KT 21/16 A3003 RMK A01 T02100156  RH  071%=      5-min Rain = 0
KBY1 161635Z 32004KT 21/16 A3003 RMK A01 T02110157  RH  071%=      5-min Rain = 0
KBY1 161636Z 32004KT 21/15 A3003 RMK A01 T02120151  RH  068%=      5-min Rain = 0
KBY1 161637Z 32004KT 21/15 A3003 RMK A01 T02120154  RH  070%=      5-min Rain = 0
KBY1 161638Z 31005KT 21/16 A3003 RMK A01 T02120155  RH  070%=      5-min Rain = 0
KBY1 161639Z 30004KT 21/16 A3003 RMK A01 T02120158  RH  071%=      5-min Rain = 0
KBY1 161640Z 31004KT 21/16 A3003 RMK A01 T02130158  RH  071%=      5-min Rain = 0
KBY1 161641Z 30005KT 21/16 A3003 RMK A01 T02130157  RH  070%=      5-min Rain = 0
KBY1 161642Z 29005KT 21/15 A3003 RMK A01 T02130153  RH  068%=      5-min Rain = 0
KBY1 161643Z 30006KT 21/15 A3003 RMK A01 T02120151  RH  068%=      5-min Rain = 0
KBY1 161644Z 29006KT 21/15 A3003 RMK A01 T02100151  RH  069%=      5-min Rain = 0
KBY1 161645Z 30004KT 21/15 A3003 RMK A01 T02090150  RH  069%=      5-min Rain = 0
KBY1 161646Z 27003KT 21/15 A3003 RMK A01 T02090151  RH  069%=      5-min Rain = 0
KBY1 161647Z 25005KT 21/16 A3003 RMK A01 T02090157  RH  072%=      5-min Rain = 0
KBY1 161648Z 26005KT 21/16 A3003 RMK A01 T02100156  RH  071%=      5-min Rain = 0
KBY1 161649Z 26005KT 21/15 A3003 RMK A01 T02110152  RH  069%=      5-min Rain = 0
KBY1 161650Z 26006KT 21/15 A3003 RMK A01 T02100153  RH  070%=      5-min Rain = 0
KBY1 161651Z 27006KT 21/16 A3003 RMK A01 T02090156  RH  072%=      5-min Rain = 0
KBY1 161652Z 28005KT 21/15 A3003 RMK A01 T02090154  RH  071%=      5-min Rain = 0
KBY1 161653Z 29005KT 21/15 A3003 RMK A01 T02090153  RH  070%=      5-min Rain = 0
KBY1 161654Z 29005KT 21/15 A3003 RMK A01 T02090153  RH  070%=      5-min Rain = 0
KBY1 161655Z 30005KT 21/15 A3003 RMK A01 T02090153  RH  070%=      5-min Rain = 0
KBY1 161656Z 28004KT 21/15 A3003 RMK A01 T02090151  RH  070%=      5-min Rain = 0
KBY1 161657Z 27004KT 21/15 A3003 RMK A01 T02080151  RH  070%=      5-min Rain = 0
KBY1 161658Z 28004KT 21/15 A3003 RMK A01 T02080154  RH  071%=      5-min Rain = 0
KBY1 161659Z 28005KT 21/16 A3003 RMK A01 T02080155  RH  071%=      5-min Rain = 0
KBY1 161700Z 27005KT 21/15 A3003 RMK A01 T02080154  RH  071%=      5-min Rain = 0
KBY1 161701Z 27005KT 21/16 A3003 RMK A01 T02080155  RH  071%=      5-min Rain = 0
KBY1 161702Z 27005KT 21/15 A3003 RMK A01 T02080153  RH  071%=      5-min Rain = 0
KBY1 161703Z 28005KT 21/15 A3003 RMK A01 T02080154  RH  071%=      5-min Rain = 0
KBY1 161704Z 30006KT 21/16 A3003 RMK A01 T02080155  RH  072%=      5-min Rain = 0
KBY1 161705Z 30005KT 21/15 A3003 RMK A01 T02080153  RH  071%=      5-min Rain = 0
KBY1 161706Z 30004KT 21/15 A3003 RMK A01 T02080153  RH  071%=      5-min Rain = 0
KBY1 161707Z 30004KT 21/15 A3003 RMK A01 T02080153  RH  071%=      5-min Rain = 0
KBY1 161708Z 30004KT 21/15 A3003 RMK A01 T02080153  RH  071%=      5-min Rain = 0
KBY1 161709Z 27003KT 21/15 A3003 RMK A01 T02080153  RH  071%=      5-min Rain = 0
KBY1 161710Z 27004KT 21/16 A3002 RMK A01 T02080157  RH  072%=      5-min Rain = 0
KBY1 161711Z 29005KT 21/16 A3002 RMK A01 T02090156  RH  072%=      5-min Rain = 0
KBY1 161712Z 27004KT 21/16 A3002 RMK A01 T02100155  RH  071%=      5-min Rain = 0
KBY1 161713Z 28003KT 21/15 A3002 RMK A01 T02100154  RH  070%=      5-min Rain = 0
KBY1 161714Z 26004KT 21/16 A3002 RMK A01 T02100156  RH  071%=      5-min Rain = 0
KBY1 161715Z 26003KT 21/16 A3002 RMK A01 T02110156  RH  071%=      5-min Rain = 0
KBY1 161716Z 30004KT 21/16 A3002 RMK A01 T02110157  RH  071%=      5-min Rain = 0
KBY1 161717Z 31002KT 21/16 A3002 RMK A01 T02120158  RH  071%=      5-min Rain = 0
KBY1 161718Z 28004KT 21/16 A3002 RMK A01 T02120160  RH  072%=      5-min Rain = 0
KBY1 161719Z 29004KT 21/16 A3002 RMK A01 T02140157  RH  070%=      5-min Rain = 0
KBY1 161720Z 29005KT 21/16 A3002 RMK A01 T02140156  RH  070%=      5-min Rain = 0
KBY1 161721Z 29006KT 21/15 A3002 RMK A01 T02130153  RH  068%=      5-min Rain = 0
KBY1 161722Z 30003KT 21/15 A3002 RMK A01 T02120151  RH  068%=      5-min Rain = 0
KBY1 161723Z 26003KT 21/15 A3002 RMK A01 T02110153  RH  069%=      5-min Rain = 0
KBY1 161724Z 26005KT 21/15 A3002 RMK A01 T02110154  RH  070%=      5-min Rain = 0
KBY1 161725Z 26004KT 21/16 A3002 RMK A01 T02120156  RH  071%=      5-min Rain = 0
KBY1 161726Z 26003KT 21/15 A3002 RMK A01 T02130154  RH  069%=      5-min Rain = 0
KBY1 161727Z 25002KT 21/15 A3002 RMK A01 T02130154  RH  069%=      5-min Rain = 0
KBY1 161728Z 26003KT 21/16 A3002 RMK A01 T02140155  RH  069%=      5-min Rain = 0
KBY1 161729Z 28002KT 21/16 A3002 RMK A01 T02140158  RH  071%=      5-min Rain = 0
KBY1 161730Z 28002KT 22/16 A3002 RMK A01 T02150159  RH  070%=      5-min Rain = 0
KBY1 161731Z 26004KT 22/16 A3002 RMK A01 T02170163  RH  072%=      5-min Rain = 0
KBY1 161732Z 27004KT 22/16 A3002 RMK A01 T02180159  RH  069%=      5-min Rain = 0
KBY1 161733Z 27002KT 22/15 A3002 RMK A01 T02190153  RH  066%=      5-min Rain = 0
KBY1 161734Z 30002KT 22/16 A3002 RMK A01 T02190155  RH  067%=      5-min Rain = 0
KBY1 161735Z 31004KT 22/16 A3002 RMK A01 T02190156  RH  067%=      5-min Rain = 0
KBY1 161736Z 30004KT 22/15 A3002 RMK A01 T02190152  RH  066%=      5-min Rain = 0
KBY1 161737Z 30003KT 22/15 A3002 RMK A01 T02180153  RH  067%=      5-min Rain = 0
KBY1 161738Z 31004KT 22/15 A3002 RMK A01 T02180152  RH  066%=      5-min Rain = 0
KBY1 161739Z 33005KT 22/15 A3002 RMK A01 T02180154  RH  067%=      5-min Rain = 0
KBY1 161740Z 33004KT 22/15 A3002 RMK A01 T02180151  RH  066%=      5-min Rain = 0
KBY1 161741Z 30004KT 22/16 A3002 RMK A01 T02190155  RH  067%=      5-min Rain = 0
KBY1 161742Z 27003KT 22/15 A3002 RMK A01 T02200150  RH  065%=      5-min Rain = 0
KBY1 161743Z 29003KT 22/16 A3002 RMK A01 T02210159  RH  068%=      5-min Rain = 0
KBY1 161744Z 32004KT 22/16 A3002 RMK A01 T02240160  RH  067%=      5-min Rain = 0
KBY1 161745Z 33002KT 23/15 A3002 RMK A01 T02250153  RH  064%=      5-min Rain = 0
KBY1 161746Z 28001KT 23/15 A3002 RMK A01 T02250154  RH  064%=      5-min Rain = 0
KBY1 161747Z 19000KT 23/16 A3002 RMK A01 T02260158  RH  066%=      5-min Rain = 0
KBY1 161748Z 01001KT 23/17 A3002 RMK A01 T02290167  RH  068%=      5-min Rain = 0
KBY1 161749Z 34004KT 23/16 A3002 RMK A01 T02320164  RH  065%=      5-min Rain = 0
KBY1 161750Z 34003KT 23/16 A3002 RMK A01 T02330158  RH  063%=      5-min Rain = 0
KBY1 161751Z 32002KT 23/16 A3002 RMK A01 T02300155  RH  062%=      5-min Rain = 0
KBY1 161752Z 31002KT 23/16 A3002 RMK A01 T02300159  RH  065%=      5-min Rain = 0
KBY1 161753Z 33004KT 23/16 A3002 RMK A01 T02300157  RH  064%=      5-min Rain = 0
KBY1 161754Z 29001KT 23/16 A3002 RMK A01 T02300160  RH  064%=      5-min Rain = 0
KBY1 161755Z 26001KT 23/16 A3001 RMK A01 T02300159  RH  064%=      5-min Rain = 0
KBY1 161756Z 31000KT 23/16 A3001 RMK A01 T02320161  RH  064%=      5-min Rain = 0
KBY1 161757Z 31003KT 23/16 A3001 RMK A01 T02340161  RH  063%=      5-min Rain = 0
KBY1 161758Z 34002KT 23/16 A3001 RMK A01 T02330158  RH  063%=      5-min Rain = 0
KBY1 161759Z 03002KT 23/16 A3001 RMK A01 T02320158  RH  063%=      5-min Rain = 0
KBY1 161800Z 07000KT 23/15 A3001 RMK A01 T02300153  RH  062%=      5-min Rain = 0
KBY1 161801Z 15001KT 23/16 A3001 RMK A01 T02280156  RH  064%=      5-min Rain = 0
KBY1 161802Z 14001KT 23/16 A3001 RMK A01 T02280159  RH  065%=      5-min Rain = 0
KBY1 161803Z 11000KT 23/16 A3001 RMK A01 T02290157  RH  064%=      5-min Rain = 0
KBY1 161804Z 15001KT 23/16 A3001 RMK A01 T02300161  RH  065%=      5-min Rain = 0
KBY1 161805Z 29001KT 23/17 A3001 RMK A01 T02320166  RH  066%=      5-min Rain = 0
KBY1 161806Z 30001KT 23/16 A3001 RMK A01 T02320158  RH  063%=      5-min Rain = 0
KBY1 161807Z 32005KT 23/16 A3001 RMK A01 T02320161  RH  064%=      5-min Rain = 0
KBY1 161808Z 34005KT 23/16 A3001 RMK A01 T02320163  RH  065%=      5-min Rain = 0
KBY1 161809Z 04005KT 23/17 A3001 RMK A01 T02320165  RH  066%=      5-min Rain = 0
KBY1 161810Z 03004KT 23/16 A3001 RMK A01 T02320161  RH  065%=      5-min Rain = 0
KBY1 161811Z 03003KT 23/16 A3001 RMK A01 T02310161  RH  065%=      5-min Rain = 0
KBY1 161812Z 05003KT 23/17 A3001 RMK A01 T02310165  RH  066%=      5-min Rain = 0
KBY1 161813Z 36004KT 23/16 A3001 RMK A01 T02320161  RH  065%=      5-min Rain = 0
KBY1 161814Z 01005KT 23/17 A3001 RMK A01 T02320165  RH  066%=      5-min Rain = 0
KBY1 161815Z 00004KT 23/16 A3001 RMK A01 T02320162  RH  065%=      5-min Rain = 0
KBY1 161816Z 34004KT 23/17 A3001 RMK A01 T02320165  RH  066%=      5-min Rain = 0
KBY1 161817Z 35004KT 23/17 A3001 RMK A01 T02330169  RH  067%=      5-min Rain = 0
KBY1 161818Z 01005KT 24/17 A3001 RMK A01 T02350168  RH  066%=      5-min Rain = 0
KBY1 161819Z 01006KT 24/17 A3001 RMK A01 T02350166  RH  065%=      5-min Rain = 0
KBY1 161820Z 00004KT 24/16 A3001 RMK A01 T02350161  RH  063%=      5-min Rain = 0
KBY1 161821Z 04003KT 23/16 A3001 RMK A01 T02320162  RH  065%=      5-min Rain = 0
KBY1 161822Z 04005KT 23/17 A3001 RMK A01 T02320165  RH  066%=      5-min Rain = 0
KBY1 161823Z 06002KT 23/16 A3001 RMK A01 T02320159  RH  064%=      5-min Rain = 0
KBY1 161824Z 08002KT 23/17 A3001 RMK A01 T02310165  RH  066%=      5-min Rain = 0
KBY1 161825Z 09001KT 23/17 A3001 RMK A01 T02320168  RH  067%=      5-min Rain = 0
KBY1 161826Z 03004KT 23/17 A3001 RMK A01 T02330166  RH  066%=      5-min Rain = 0
KBY1 161827Z 02005KT 23/16 A30 RMK A01 T02330162  RH  064%=      5-min Rain = 0
KBY1 161828Z 02004KT 23/16 A30 RMK A01 T02320164  RH  065%=      5-min Rain = 0
KBY1 161829Z 04003KT 23/16 A30 RMK A01 T02320158  RH  063%=      5-min Rain = 0
KBY1 161830Z 01005KT 23/16 A30 RMK A01 T02320162  RH  065%=      5-min Rain = 0
KBY1 161831Z 00005KT 23/16 A30 RMK A01 T02320162  RH  065%=      5-min Rain = 0
KBY1 161832Z 35005KT 23/16 A30 RMK A01 T02310162  RH  065%=      5-min Rain = 0
KBY1 161833Z 36003KT 23/16 A30 RMK A01 T02300159  RH  064%=      5-min Rain = 0
KBY1 161834Z 31001KT 23/16 A30 RMK A01 T02290158  RH  064%=      5-min Rain = 0
KBY1 161835Z 33001KT 23/16 A30 RMK A01 T02290162  RH  066%=      5-min Rain = 0
KBY1 161836Z 31000KT 23/16 A30 RMK A01 T02310160  RH  064%=      5-min Rain = 0
KBY1 161837Z 34001KT 23/17 A30 RMK A01 T02340168  RH  066%=      5-min Rain = 0
KBY1 161838Z 02004KT 24/17 A30 RMK A01 T02380170  RH  066%=      5-min Rain = 0
KBY1 161839Z 03004KT 24/17 A30 RMK A01 T02400165  RH  063%=      5-min Rain = 0
KBY1 161840Z 02005KT 24/17 A30 RMK A01 T02400171  RH  065%=      5-min Rain = 0
KBY1 161841Z 02005KT 24/16 A30 RMK A01 T02410161  RH  061%=      5-min Rain = 0
KBY1 161842Z 01003KT 24/16 A30 RMK A01 T02380162  RH  062%=      5-min Rain = 0
KBY1 161843Z 05002KT 24/17 A30 RMK A01 T02380166  RH  064%=      5-min Rain = 0
KBY1 161844Z 03004KT 24/17 A30 RMK A01 T02400165  RH  063%=      5-min Rain = 0
KBY1 161845Z 03005KT 24/17 A30 RMK A01 T02410166  RH  063%=      5-min Rain = 0
KBY1 161846Z 03005KT 24/17 A30 RMK A01 T02420166  RH  063%=      5-min Rain = 0
KBY1 161847Z 02004KT 24/16 A30 RMK A01 T02420164  RH  062%=      5-min Rain = 0
KBY1 161848Z 02004KT 24/16 A30 RMK A01 T02420163  RH  061%=      5-min Rain = 0
KBY1 161849Z 04005KT 24/16 A30 RMK A01 T02420163  RH  061%=      5-min Rain = 0
KBY1 161850Z 04003KT 24/17 A30 RMK A01 T02410166  RH  063%=      5-min Rain = 0
KBY1 161851Z 04002KT 24/17 A30 RMK A01 T02410167  RH  063%=      5-min Rain = 0
KBY1 161852Z 05000KT 24/16 A30 RMK A01 T02420158  RH  060%=      5-min Rain = 0
KBY1 161853Z 12001KT 24/17 A30 RMK A01 T02410167  RH  063%=      5-min Rain = 0
KBY1 161854Z 08004KT 24/17 A30 RMK A01 T02440169  RH  063%=      5-min Rain = 0
KBY1 161855Z 08005KT 25/16 A30 RMK A01 T02450162  RH  060%=      5-min Rain = 0
KBY1 161856Z 08004KT 24/16 A30 RMK A01 T02430160  RH  060%=      5-min Rain = 0
KBY1 161857Z 09005KT 24/16 A30 RMK A01 T02410164  RH  062%=      5-min Rain = 0
KBY1 161858Z 08006KT 24/17 A30 RMK A01 T02420165  RH  062%=      5-min Rain = 0
KBY1 161859Z 05005KT 24/16 A30 RMK A01 T02430162  RH  060%=      5-min Rain = 0
KBY1 161900Z 08004KT 24/17 A30 RMK A01 T02430165  RH  062%=      5-min Rain = 0
KBY1 161901Z 05005KT 24/17 A30 RMK A01 T02440172  RH  064%=      5-min Rain = 0
KBY1 161902Z 02004KT 25/17 A30 RMK A01 T02470167  RH  061%=      5-min Rain = 0
KBY1 161903Z 05003KT 25/16 A30 RMK A01 T02470162  RH  059%=      5-min Rain = 0
KBY1 161904Z 06005KT 25/17 A30 RMK A01 T02450170  RH  063%=      5-min Rain = 0
KBY1 161905Z 06006KT 25/17 A30 RMK A01 T02460170  RH  063%=      5-min Rain = 0
KBY1 161906Z 07004KT 25/17 A30 RMK A01 T02450165  RH  061%=      5-min Rain = 0
KBY1 161907Z 05004KT 24/17 A30 RMK A01 T02430165  RH  061%=      5-min Rain = 0
KBY1 161908Z 04004KT 24/16 A2999 RMK A01 T02430164  RH  061%=      5-min Rain = 0
KBY1 161909Z 05004KT 24/16 A2999 RMK A01 T02430162  RH  061%=      5-min Rain = 0
KBY1 161910Z 06006KT 24/17 A2999 RMK A01 T02420168  RH  063%=      5-min Rain = 0
KBY1 161911Z 09004KT 24/17 A2999 RMK A01 T02430165  RH  062%=      5-min Rain = 0
KBY1 161912Z 08005KT 24/17 A2999 RMK A01 T02420171  RH  064%=      5-min Rain = 0
KBY1 161913Z 09006KT 24/18 A2999 RMK A01 T02440175  RH  065%=      5-min Rain = 0
KBY1 161914Z 09006KT 25/17 A2999 RMK A01 T02460168  RH  062%=      5-min Rain = 0
KBY1 161915Z 08005KT 25/17 A2999 RMK A01 T02450172  RH  064%=      5-min Rain = 0
KBY1 161916Z 08004KT 25/17 A2999 RMK A01 T02450166  RH  061%=      5-min Rain = 0
KBY1 161917Z 10004KT 25/17 A2999 RMK A01 T02450166  RH  061%=      5-min Rain = 0
KBY1 161918Z 10003KT 24/16 A2999 RMK A01 T02440160  RH  060%=      5-min Rain = 0
KBY1 161919Z 06004KT 24/17 A2999 RMK A01 T02430168  RH  063%=      5-min Rain = 0
KBY1 161920Z 08004KT 24/17 A2999 RMK A01 T02420166  RH  063%=      5-min Rain = 0
KBY1 161921Z 06004KT 24/17 A2999 RMK A01 T02420167  RH  063%=      5-min Rain = 0
KBY1 161922Z 10003KT 24/16 A2999 RMK A01 T02430164  RH  061%=      5-min Rain = 0
KBY1 161923Z 15002KT 24/16 A2999 RMK A01 T02430161  RH  060%=      5-min Rain = 0
KBY1 161924Z 16003KT 24/16 A2999 RMK A01 T02420160  RH  060%=      5-min Rain = 0
KBY1 161925Z 17003KT 24/17 A2999 RMK A01 T02420165  RH  062%=      5-min Rain = 0
KBY1 161926Z 13002KT 24/17 A2999 RMK A01 T02430168  RH  063%=      5-min Rain = 0
KBY1 161927Z 11002KT 25/17 A2999 RMK A01 T02450168  RH  062%=      5-min Rain = 0
KBY1 161928Z 08001KT 25/16 A2999 RMK A01 T02460163  RH  060%=      5-min Rain = 0
KBY1 161929Z 19002KT 25/17 A2999 RMK A01 T02460167  RH  061%=      5-min Rain = 0
KBY1 161930Z 20004KT 25/17 A2999 RMK A01 T02470170  RH  062%=      5-min Rain = 0
KBY1 161931Z 21004KT 25/17 A2999 RMK A01 T02470168  RH  061%=      5-min Rain = 0
KBY1 161932Z 20004KT 25/17 A2999 RMK A01 T02480167  RH  061%=      5-min Rain = 0
KBY1 161933Z 19004KT 25/17 A2999 RMK A01 T02470171  RH  063%=      5-min Rain = 0
KBY1 161934Z 15005KT 25/18 A2999 RMK A01 T02490175  RH  063%=      5-min Rain = 0
KBY1 161935Z 17003KT 25/17 A2999 RMK A01 T02500169  RH  061%=      5-min Rain = 0
KBY1 161936Z 12004KT 25/17 A2999 RMK A01 T02500171  RH  062%=      5-min Rain = 0
KBY1 161937Z 11003KT 25/17 A2999 RMK A01 T02490170  RH  061%=      5-min Rain = 0
KBY1 161938Z 10004KT 25/17 A2999 RMK A01 T02490170  RH  061%=      5-min Rain = 0
KBY1 161939Z 09005KT 25/17 A2999 RMK A01 T02490170  RH  062%=      5-min Rain = 0
KBY1 161940Z 08004KT 25/16 A2999 RMK A01 T02470164  RH  060%=      5-min Rain = 0
KBY1 161941Z 06003KT 25/17 A2999 RMK A01 T02450165  RH  061%=      5-min Rain = 0
KBY1 161942Z 05003KT 24/17 A2999 RMK A01 T02440165  RH  061%=      5-min Rain = 0
KBY1 161943Z 15001KT 24/16 A2999 RMK A01 T02440162  RH  060%=      5-min Rain = 0
KBY1 161944Z 22001KT 25/16 A2999 RMK A01 T02450161  RH  059%=      5-min Rain = 0
KBY1 161945Z 32000KT 25/17 A2998 RMK A01 T02460166  RH  061%=      5-min Rain = 0
KBY1 161946Z 07000KT 25/16 A2998 RMK A01 T02470162  RH  059%=      5-min Rain = 0
KBY1 161947Z 07002KT 25/16 A2998 RMK A01 T02470164  RH  060%=      5-min Rain = 0
KBY1 161948Z 03004KT 25/17 A2999 RMK A01 T02480166  RH  060%=      5-min Rain = 0
KBY1 161949Z 03005KT 25/16 A2999 RMK A01 T02480155  RH  056%=      5-min Rain = 0
KBY1 161950Z 06004KT 25/16 A2998 RMK A01 T02480156  RH  057%=      5-min Rain = 0
KBY1 161951Z 05000KT 25/15 A2998 RMK A01 T02480149  RH  054%=      5-min Rain = 0
KBY1 161952Z 01002KT 25/15 A2998 RMK A01 T02490154  RH  056%=      5-min Rain = 0
KBY1 161953Z 33003KT 25/16 A2998 RMK A01 T02510156  RH  056%=      5-min Rain = 0
KBY1 161954Z 33002KT 25/16 A2998 RMK A01 T02520157  RH  056%=      5-min Rain = 0
KBY1 161955Z 06001KT 25/16 A2998 RMK A01 T02530161  RH  057%=      5-min Rain = 0
KBY1 161956Z 09003KT 26/16 A2998 RMK A01 T02550162  RH  056%=      5-min Rain = 0
KBY1 161957Z 08003KT 26/16 A2998 RMK A01 T02560160  RH  055%=      5-min Rain = 0
KBY1 161958Z 10002KT 26/15 A2998 RMK A01 T02550154  RH  054%=      5-min Rain = 0
KBY1 161959Z 10000KT 25/16 A2998 RMK A01 T02540157  RH  055%=      5-min Rain = 0
KBY1 162000Z 11001KT 26/16 A2998 RMK A01 T02550163  RH  057%=      5-min Rain = 0
KBY1 162001Z 03002KT 26/17 A2998 RMK A01 T02590165  RH  056%=      5-min Rain = 0
KBY1 162002Z 01003KT 26/16 A2998 RMK A01 T02600155  RH  052%=      5-min Rain = 0
KBY1 162003Z 02004KT 26/16 A2998 RMK A01 T02590155  RH  053%=      5-min Rain = 0
KBY1 162004Z 04007KT 26/16 A2998 RMK A01 T02590157  RH  053%=      5-min Rain = 0
KBY1 162005Z 02004KT 26/16 A2998 RMK A01 T02570155  RH  053%=      5-min Rain = 0
KBY1 162006Z 01005KT 26/15 A2998 RMK A01 T02560153  RH  053%=      5-min Rain = 0
KBY1 162007Z 03005KT 26/15 A2998 RMK A01 T02550153  RH  053%=      5-min Rain = 0
KBY1 162008Z 04007KT 26/16 A2998 RMK A01 T02550159  RH  055%=      5-min Rain = 0
KBY1 162009Z 03006KT 26/15 A2998 RMK A01 T02550154  RH  054%=      5-min Rain = 0
KBY1 162010Z 02002KT 26/15 A2998 RMK A01 T02550154  RH  054%=      5-min Rain = 0
KBY1 162011Z 04003KT 26/15 A2998 RMK A01 T02560154  RH  053%=      5-min Rain = 0
KBY1 162012Z 03006KT 26/16 A2998 RMK A01 T02570158  RH  054%=      5-min Rain = 0
KBY1 162013Z 03005KT 26/16 A2998 RMK A01 T02570164  RH  057%=      5-min Rain = 0
KBY1 162014Z 04004KT 26/16 A2998 RMK A01 T02560159  RH  055%=      5-min Rain = 0
KBY1 162015Z 04003KT 26/17 A2998 RMK A01 T02550166  RH  058%=      5-min Rain = 0
KBY1 162016Z 04003KT 26/16 A2998 RMK A01 T02550159  RH  055%=      5-min Rain = 0
KBY1 162017Z 03001KT 25/16 A2998 RMK A01 T02540159  RH  056%=      5-min Rain = 0
KBY1 162018Z 34003KT 25/16 A2998 RMK A01 T02540160  RH  056%=      5-min Rain = 0
KBY1 162019Z 32001KT 25/16 A2998 RMK A01 T02540156  RH  055%=      5-min Rain = 0
KBY1 162020Z 30001KT 26/16 A2998 RMK A01 T02550160  RH  056%=      5-min Rain = 0
KBY1 162021Z 29001KT 26/16 A2998 RMK A01 T02560162  RH  056%=      5-min Rain = 0
KBY1 162022Z 29001KT 26/16 A2998 RMK A01 T02580161  RH  055%=      5-min Rain = 0
KBY1 162023Z 25001KT 26/16 A2998 RMK A01 T02590162  RH  055%=      5-min Rain = 0
KBY1 162024Z 23002KT 26/17 A2998 RMK A01 T02590166  RH  057%=      5-min Rain = 0
KBY1 162025Z 19002KT 26/17 A2998 RMK A01 T02590169  RH  057%=      5-min Rain = 0
KBY1 162026Z 16003KT 26/17 A2998 RMK A01 T02590167  RH  057%=      5-min Rain = 0
KBY1 162027Z 14003KT 26/16 A2998 RMK A01 T02600164  RH  056%=      5-min Rain = 0
KBY1 162028Z 10004KT 26/17 A2998 RMK A01 T02600168  RH  057%=      5-min Rain = 0
KBY1 162029Z 10003KT 26/16 A2998 RMK A01 T02620159  RH  053%=      5-min Rain = 0
KBY1 162030Z 11005KT 26/16 A2998 RMK A01 T02620161  RH  054%=      5-min Rain = 0
KBY1 162031Z 10005KT 26/16 A2998 RMK A01 T02610161  RH  054%=      5-min Rain = 0
KBY1 162032Z 08004KT 26/16 A2998 RMK A01 T02600162  RH  055%=      5-min Rain = 0
KBY1 162033Z 04003KT 26/16 A2998 RMK A01 T02580157  RH  054%=      5-min Rain = 0
KBY1 162034Z 04003KT 26/16 A2998 RMK A01 T02580160  RH  054%=      5-min Rain = 0
KBY1 162035Z 03006KT 26/16 A2998 RMK A01 T02620160  RH  053%=      5-min Rain = 0
KBY1 162036Z 04004KT 26/16 A2998 RMK A01 T02630158  RH  052%=      5-min Rain = 0
KBY1 162037Z 07003KT 26/16 A2998 RMK A01 T02630157  RH  052%=      5-min Rain = 0
KBY1 162038Z 08002KT 26/16 A2998 RMK A01 T02620157  RH  053%=      5-min Rain = 0
KBY1 162039Z 06004KT 26/16 A2998 RMK A01 T02620156  RH  052%=      5-min Rain = 0
KBY1 162040Z 04003KT 26/16 A2998 RMK A01 T02620159  RH  053%=      5-min Rain = 0
KBY1 162041Z 03003KT 26/15 A2997 RMK A01 T02630154  RH  051%=      5-min Rain = 0
KBY1 162042Z 04008KT 26/16 A2997 RMK A01 T02640162  RH  053%=      5-min Rain = 0
KBY1 162043Z 03007KT 27/16 A2998 RMK A01 T02650162  RH  053%=      5-min Rain = 0
KBY1 162044Z 03008KT 27/15 A2997 RMK A01 T02650151  RH  050%=      5-min Rain = 0
KBY1 162045Z 03006KT 26/15 A2997 RMK A01 T02610153  RH  051%=      5-min Rain = 0
KBY1 162046Z 02004KT 26/16 A2997 RMK A01 T02610157  RH  053%=      5-min Rain = 0
KBY1 162047Z 03002KT 26/15 A2997 RMK A01 T02630151  RH  050%=      5-min Rain = 0
KBY1 162048Z 07003KT 26/15 A2997 RMK A01 T02630150  RH  050%=      5-min Rain = 0
KBY1 162049Z 09003KT 26/15 A2997 RMK A01 T02620152  RH  051%=      5-min Rain = 0
KBY1 162050Z 08005KT 26/16 A2997 RMK A01 T02620155  RH  052%=      5-min Rain = 0
KBY1 162051Z 08005KT 26/16 A2997 RMK A01 T02610156  RH  052%=      5-min Rain = 0
KBY1 162052Z 10005KT 26/16 A2997 RMK A01 T02620163  RH  054%=      5-min Rain = 0
KBY1 162053Z 11004KT 26/16 A2997 RMK A01 T02630155  RH  051%=      5-min Rain = 0
KBY1 162054Z 11005KT 26/16 A2997 RMK A01 T02640159  RH  052%=      5-min Rain = 0
KBY1 162055Z 10003KT 26/15 A2997 RMK A01 T02630149  RH  049%=      5-min Rain = 0
KBY1 162056Z 19001KT 26/15 A2997 RMK A01 T02610149  RH  050%=      5-min Rain = 0
KBY1 162057Z 25003KT 26/15 A2997 RMK A01 T02610148  RH  050%=      5-min Rain = 0
KBY1 162058Z 25001KT 26/15 A2997 RMK A01 T02610151  RH  051%=      5-min Rain = 0
KBY1 162059Z 00000KT 26/15 A2997 RMK A01 T02620150  RH  050%=      5-min Rain = 0
KBY1 162100Z 05001KT 26/15 A2997 RMK A01 T02640148  RH  049%=      5-min Rain = 0
KBY1 162101Z 07004KT 27/16 A2997 RMK A01 T02650159  RH  052%=      5-min Rain = 0
KBY1 162102Z 09004KT 27/16 A2997 RMK A01 T02660155  RH  051%=      5-min Rain = 0
KBY1 162103Z 10004KT 26/16 A2997 RMK A01 T02640155  RH  051%=      5-min Rain = 0
KBY1 162104Z 10005KT 26/16 A2997 RMK A01 T02640164  RH  054%=      5-min Rain = 0
KBY1 162105Z 11005KT 27/15 A2997 RMK A01 T02650154  RH  051%=      5-min Rain = 0
KBY1 162106Z 12004KT 26/15 A2997 RMK A01 T02630153  RH  051%=      5-min Rain = 0
KBY1 162107Z 10004KT 26/15 A2997 RMK A01 T02630153  RH  051%=      5-min Rain = 0
KBY1 162108Z 10003G8KT 26/15 A2996 RMK A01 T02630153  RH  051%=      5-min Rain = 0
KBY1 162109Z 11005KT 26/16 A2996 RMK A01 T02630157  RH  052%=      5-min Rain = 0
KBY1 162110Z 11004KT 26/15 A2996 RMK A01 T02630154  RH  051%=      5-min Rain = 0
KBY1 162111Z 11004KT 26/16 A2996 RMK A01 T02620158  RH  053%=      5-min Rain = 0
KBY1 162112Z 12003KT 26/16 A2996 RMK A01 T02620159  RH  053%=      5-min Rain = 0
KBY1 162113Z 12002KT 26/16 A2996 RMK A01 T02630159  RH  053%=      5-min Rain = 0
KBY1 162114Z 12003KT 26/16 A2996 RMK A01 T02630159  RH  053%=      5-min Rain = 0
KBY1 162115Z 07003KT 27/16 A2996 RMK A01 T02650156  RH  051%=      5-min Rain = 0
KBY1 162116Z 06004KT 27/15 A2996 RMK A01 T02660150  RH  049%=      5-min Rain = 0
KBY1 162117Z 04002KT 27/15 A2996 RMK A01 T02650147  RH  048%=      5-min Rain = 0
KBY1 162118Z 07002KT 27/15 A2996 RMK A01 T02650153  RH  050%=      5-min Rain = 0
KBY1 162119Z 09004KT 27/15 A2996 RMK A01 T02650151  RH  049%=      5-min Rain = 0
KBY1 162120Z 06004KT 27/16 A2996 RMK A01 T02650155  RH  051%=      5-min Rain = 0
KBY1 162121Z 05005KT 27/16 A2996 RMK A01 T02650160  RH  053%=      5-min Rain = 0
KBY1 162122Z 03008KT 27/16 A2996 RMK A01 T02660158  RH  051%=      5-min Rain = 0
KBY1 162123Z 04008KT 27/15 A2996 RMK A01 T02670152  RH  049%=      5-min Rain = 0
KBY1 162124Z 04006KT 27/16 A2996 RMK A01 T02670159  RH  051%=      5-min Rain = 0
KBY1 162125Z 04006KT 27/15 A2996 RMK A01 T02680154  RH  049%=      5-min Rain = 0
KBY1 162126Z 04005KT 27/15 A2996 RMK A01 T02680149  RH  048%=      5-min Rain = 0
KBY1 162127Z 02005KT 27/15 A2996 RMK A01 T02670152  RH  049%=      5-min Rain = 0
KBY1 162128Z 03003KT 27/15 A2996 RMK A01 T02660149  RH  049%=      5-min Rain = 0
KBY1 162129Z 01004KT 27/15 A2996 RMK A01 T02650152  RH  050%=      5-min Rain = 0
KBY1 162130Z 01003KT 27/15 A2996 RMK A01 T02660146  RH  048%=      5-min Rain = 0
KBY1 162131Z 01000KT 27/14 A2996 RMK A01 T02660144  RH  047%=      5-min Rain = 0
KBY1 162132Z 04000KT 27/14 A2996 RMK A01 T02670143  RH  046%=      5-min Rain = 0
KBY1 162133Z 05000KT 27/15 A2996 RMK A01 T02690150  RH  048%=      5-min Rain = 0
KBY1 162134Z 06001KT 27/16 A2996 RMK A01 T02720158  RH  050%=      5-min Rain = 0
KBY1 162135Z 06001KT 27/15 A2996 RMK A01 T02730152  RH  048%=      5-min Rain = 0
KBY1 162136Z 07004KT 27/16 A2996 RMK A01 T02730156  RH  049%=      5-min Rain = 0
KBY1 162137Z 06007KT 27/16 A2996 RMK A01 T02720157  RH  050%=      5-min Rain = 0
KBY1 162138Z 05005KT 27/16 A2996 RMK A01 T02710156  RH  049%=      5-min Rain = 0
KBY1 162139Z 05008KT 27/15 A2996 RMK A01 T02710152  RH  048%=      5-min Rain = 0
KBY1 162140Z 05006KT 27/15 A2996 RMK A01 T02690148  RH  047%=      5-min Rain = 0
KBY1 162141Z 04006KT 27/15 A2996 RMK A01 T02680150  RH  048%=      5-min Rain = 0
KBY1 162142Z 03004KT 27/15 A2996 RMK A01 T02670146  RH  047%=      5-min Rain = 0
KBY1 162143Z 07002KT 27/15 A2996 RMK A01 T02670148  RH  048%=      5-min Rain = 0
KBY1 162144Z 03006KT 27/15 A2996 RMK A01 T02660150  RH  049%=      5-min Rain = 0
KBY1 162145Z 01005KT 27/15 A2996 RMK A01 T02670154  RH  050%=      5-min Rain = 0
KBY1 162146Z 01004KT 27/15 A2996 RMK A01 T02650149  RH  049%=      5-min Rain = 0
KBY1 162147Z 00002KT 26/15 A2996 RMK A01 T02640154  RH  051%=      5-min Rain = 0
KBY1 162148Z 35003KT 27/15 A2996 RMK A01 T02670153  RH  050%=      5-min Rain = 0
KBY1 162149Z 00003KT 27/15 A2996 RMK A01 T02690149  RH  048%=      5-min Rain = 0
KBY1 162150Z 05007KT 27/15 A2996 RMK A01 T02700154  RH  049%=      5-min Rain = 0
KBY1 162151Z 04005KT 27/14 A2996 RMK A01 T02700141  RH  045%=      5-min Rain = 0
KBY1 162152Z 06004KT 27/15 A2995 RMK A01 T02700148  RH  047%=      5-min Rain = 0
KBY1 162153Z 05006KT 27/15 A2995 RMK A01 T02690146  RH  047%=      5-min Rain = 0
KBY1 162154Z 07007KT 27/15 A2995 RMK A01 T02700151  RH  048%=      5-min Rain = 0
KBY1 162155Z 05008KT 27/15 A2995 RMK A01 T02710146  RH  046%=      5-min Rain = 0
KBY1 162156Z 06008KT 27/15 A2995 RMK A01 T02710146  RH  047%=      5-min Rain = 0
KBY1 162157Z 05009KT 27/15 A2995 RMK A01 T02700153  RH  049%=      5-min Rain = 0
KBY1 162158Z 06007KT 27/15 A2995 RMK A01 T02690151  RH  048%=      5-min Rain = 0
KBY1 162159Z 05007KT 27/15 A2995 RMK A01 T02670148  RH  048%=      5-min Rain = 0
KBY1 162200Z 05005KT 27/15 A2995 RMK A01 T02660148  RH  048%=      5-min Rain = 0
KBY1 162201Z 05005KT 27/15 A2995 RMK A01 T02660150  RH  049%=      5-min Rain = 0
KBY1 162202Z 06005KT 27/15 A2995 RMK A01 T02660150  RH  049%=      5-min Rain = 0
KBY1 162203Z 05005KT 27/15 A2995 RMK A01 T02660152  RH  049%=      5-min Rain = 0
KBY1 162204Z 04003KT 27/15 A2995 RMK A01 T02660146  RH  048%=      5-min Rain = 0
KBY1 162205Z 05004KT 27/15 A2995 RMK A01 T02660148  RH  048%=      5-min Rain = 0
KBY1 162206Z 05004KT 27/15 A2995 RMK A01 T02660153  RH  050%=      5-min Rain = 0
KBY1 162207Z 04007KT 27/15 A2995 RMK A01 T02670149  RH  048%=      5-min Rain = 0
KBY1 162208Z 06006KT 27/14 A2995 RMK A01 T02670144  RH  047%=      5-min Rain = 0
KBY1 162209Z 05006KT 27/15 A2995 RMK A01 T02660145  RH  047%=      5-min Rain = 0
KBY1 162210Z 05005KT 27/15 A2995 RMK A01 T02650149  RH  049%=      5-min Rain = 0
KBY1 162211Z 05005KT 27/15 A2995 RMK A01 T02650150  RH  049%=      5-min Rain = 0
KBY1 162212Z 05004KT 27/15 A2995 RMK A01 T02650148  RH  048%=      5-min Rain = 0
KBY1 162213Z 02003KT 27/14 A2995 RMK A01 T02650144  RH  047%=      5-min Rain = 0
KBY1 162214Z 04003KT 27/14 A2995 RMK A01 T02650141  RH  046%=      5-min Rain = 0
KBY1 162215Z 07005KT 27/15 A2995 RMK A01 T02650152  RH  050%=      5-min Rain = 0
KBY1 162216Z 10005KT 27/15 A2995 RMK A01 T02650154  RH  050%=      5-min Rain = 0
KBY1 162217Z 11004KT 27/15 A2995 RMK A01 T02650149  RH  049%=      5-min Rain = 0
KBY1 162218Z 09003KT 27/14 A2995 RMK A01 T02660144  RH  047%=      5-min Rain = 0
KBY1 162219Z 10003KT 27/15 A2995 RMK A01 T02660147  RH  048%=      5-min Rain = 0
KBY1 162220Z 08004KT 27/15 A2995 RMK A01 T02670150  RH  049%=      5-min Rain = 0
KBY1 162221Z 08003KT 27/15 A2995 RMK A01 T02690154  RH  050%=      5-min Rain = 0
KBY1 162222Z 09003KT 27/16 A2995 RMK A01 T02710160  RH  051%=      5-min Rain = 0
KBY1 162223Z 10004KT 27/15 A2995 RMK A01 T02720149  RH  047%=      5-min Rain = 0
KBY1 162224Z 06005KT 27/15 A2995 RMK A01 T02720152  RH  048%=      5-min Rain = 0
KBY1 162225Z 07007KT 27/15 A2995 RMK A01 T02720150  RH  047%=      5-min Rain = 0
KBY1 162226Z 07006KT 27/15 A2995 RMK A01 T02720150  RH  047%=      5-min Rain = 0
KBY1 162227Z 06004KT 27/15 A2995 RMK A01 T02720146  RH  046%=      5-min Rain = 0
KBY1 162228Z 08005KT 27/15 A2995 RMK A01 T02710151  RH  048%=      5-min Rain = 0
KBY1 162229Z 09005KT 27/15 A2995 RMK A01 T02720146  RH  046%=      5-min Rain = 0
KBY1 162230Z 09005KT 27/14 A2995 RMK A01 T02710141  RH  045%=      5-min Rain = 0
KBY1 162231Z 09006KT 27/14 A2995 RMK A01 T02690144  RH  046%=      5-min Rain = 0
KBY1 162232Z 09006KT 27/14 A2995 RMK A01 T02680140  RH  045%=      5-min Rain = 0
KBY1 162233Z 10004KT 27/14 A2995 RMK A01 T02670143  RH  047%=      5-min Rain = 0
KBY1 162234Z 10005KT 27/15 A2995 RMK A01 T02670145  RH  047%=      5-min Rain = 0
KBY1 162235Z 08004KT 27/15 A2995 RMK A01 T02690149  RH  048%=      5-min Rain = 0
KBY1 162236Z 07003KT 27/14 A2995 RMK A01 T02700135  RH  044%=      5-min Rain = 0
KBY1 162237Z 07002KT 27/13 A2995 RMK A01 T02700130  RH  042%=      5-min Rain = 0
KBY1 162238Z 08001KT 27/14 A2995 RMK A01 T02700135  RH  043%=      5-min Rain = 0
KBY1 162239Z 09003KT 27/14 A2995 RMK A01 T02700141  RH  045%=      5-min Rain = 0
KBY1 162240Z 11004KT 27/15 A2994 RMK A01 T02710146  RH  046%=      5-min Rain = 0
KBY1 162241Z 11003KT 27/15 A2994 RMK A01 T02720148  RH  047%=      5-min Rain = 0
KBY1 162242Z 13004KT 27/16 A2994 RMK A01 T02730156  RH  049%=      5-min Rain = 0
KBY1 162243Z 13005KT 27/15 A2994 RMK A01 T02740152  RH  047%=      5-min Rain = 0
KBY1 162244Z 14005KT 27/15 A2994 RMK A01 T02740154  RH  048%=      5-min Rain = 0
KBY1 162245Z 13005KT 27/15 A2994 RMK A01 T02730145  RH  045%=      5-min Rain = 0
KBY1 162246Z 14004KT 27/15 A2994 RMK A01 T02710147  RH  046%=      5-min Rain = 0
KBY1 162247Z 13003KT 27/15 A2994 RMK A01 T02710147  RH  047%=      5-min Rain = 0
KBY1 162248Z 09004KT 27/15 A2994 RMK A01 T02710145  RH  046%=      5-min Rain = 0
KBY1 162249Z 09006KT 27/16 A2994 RMK A01 T02710157  RH  050%=      5-min Rain = 0
KBY1 162250Z 09008KT 27/15 A2994 RMK A01 T02710151  RH  048%=      5-min Rain = 0
KBY1 162251Z 08005KT 27/15 A2994 RMK A01 T02670148  RH  048%=      5-min Rain = 0
KBY1 162252Z 09004KT 27/15 A2994 RMK A01 T02660147  RH  048%=      5-min Rain = 0
KBY1 162253Z 10006KT 27/15 A2994 RMK A01 T02660151  RH  049%=      5-min Rain = 0
KBY1 162254Z 10005KT 27/15 A2994 RMK A01 T02680152  RH  049%=      5-min Rain = 0
KBY1 162255Z 11004KT 27/15 A2994 RMK A01 T02700145  RH  046%=      5-min Rain = 0
KBY1 162256Z 10006KT 27/15 A2994 RMK A01 T02700154  RH  049%=      5-min Rain = 0
KBY1 162257Z 10006KT 27/16 A2994 RMK A01 T02710158  RH  050%=      5-min Rain = 0
KBY1 162258Z 12008KT 27/16 A2995 RMK A01 T02700162  RH  051%=      5-min Rain = 0
KBY1 162259Z 13007KT 27/16 A2995 RMK A01 T02690163  RH  052%=      5-min Rain = 0
KBY1 162300Z 13008KT 27/17 A2995 RMK A01 T02680165  RH  053%=      5-min Rain = 0
KBY1 162301Z 13008KT 27/16 A2995 RMK A01 T02650160  RH  053%=      5-min Rain = 0
KBY1 162302Z 13009KT 26/16 A2995 RMK A01 T02640163  RH  054%=      5-min Rain = 0
KBY1 162303Z 12008KT 26/16 A2994 RMK A01 T02640161  RH  053%=      5-min Rain = 0
KBY1 162304Z 12008KT 26/16 A2994 RMK A01 T02640160  RH  053%=      5-min Rain = 0
KBY1 162305Z 12007KT 27/16 A2994 RMK A01 T02650164  RH  054%=      5-min Rain = 0
KBY1 162306Z 13007KT 27/16 A2994 RMK A01 T02670157  RH  051%=      5-min Rain = 0
KBY1 162307Z 14006KT 27/16 A2994 RMK A01 T02660160  RH  052%=      5-min Rain = 0
KBY1 162308Z 13005KT 27/16 A2994 RMK A01 T02660156  RH  051%=      5-min Rain = 0
KBY1 162309Z 12008KT 27/16 A2994 RMK A01 T02660164  RH  054%=      5-min Rain = 0
KBY1 162310Z 12008KT 27/16 A2994 RMK A01 T02670157  RH  051%=      5-min Rain = 0
KBY1 162311Z 13005KT 27/16 A2994 RMK A01 T02670160  RH  052%=      5-min Rain = 0
KBY1 162312Z 12005KT 27/17 A2994 RMK A01 T02670165  RH  053%=      5-min Rain = 0
KBY1 162313Z 12006KT 27/16 A2994 RMK A01 T02680160  RH  051%=      5-min Rain = 0
KBY1 162314Z 13007KT 27/16 A2994 RMK A01 T02680161  RH  052%=      5-min Rain = 0
KBY1 162315Z 12006KT 27/16 A2994 RMK A01 T02660158  RH  052%=      5-min Rain = 0
KBY1 162316Z 11005KT 26/16 A2994 RMK A01 T02640158  RH  052%=      5-min Rain = 0
KBY1 162317Z 09006KT 26/16 A2994 RMK A01 T02610160  RH  053%=      5-min Rain = 0
KBY1 162318Z 10006KT 26/16 A2994 RMK A01 T02580157  RH  054%=      5-min Rain = 0
KBY1 162319Z 10006KT 26/15 A2994 RMK A01 T02560151  RH  052%=      5-min Rain = 0
KBY1 162320Z 10007KT 26/15 A2994 RMK A01 T02560152  RH  052%=      5-min Rain = 0
KBY1 162321Z 11006KT 26/15 A2994 RMK A01 T02570152  RH  052%=      5-min Rain = 0
KBY1 162322Z 11006KT 26/16 A2994 RMK A01 T02580159  RH  054%=      5-min Rain = 0
KBY1 162323Z 12007KT 26/15 A2994 RMK A01 T02590153  RH  052%=      5-min Rain = 0
KBY1 162324Z 12007KT 26/15 A2994 RMK A01 T02590150  RH  051%=      5-min Rain = 0
KBY1 162325Z 12007KT 26/15 A2994 RMK A01 T02590151  RH  051%=      5-min Rain = 0
KBY1 162326Z 11007KT 26/15 A2994 RMK A01 T02590147  RH  050%=      5-min Rain = 0
KBY1 162327Z 12005KT 26/15 A2994 RMK A01 T02590147  RH  050%=      5-min Rain = 0
KBY1 162328Z 12007KT 26/15 A2994 RMK A01 T02590153  RH  052%=      5-min Rain = 0
KBY1 162329Z 12008KT 26/15 A2994 RMK A01 T02590152  RH  052%=      5-min Rain = 0
KBY1 162330Z 13008KT 26/15 A2994 RMK A01 T02590149  RH  051%=      5-min Rain = 0
KBY1 162331Z 11007KT 26/15 A2994 RMK A01 T02580151  RH  051%=      5-min Rain = 0
KBY1 162332Z 11007KT 26/15 A2994 RMK A01 T02580152  RH  052%=      5-min Rain = 0
KBY1 162333Z 12007KT 26/15 A2994 RMK A01 T02590151  RH  051%=      5-min Rain = 0
KBY1 162334Z 12006KT 26/16 A2994 RMK A01 T02590156  RH  053%=      5-min Rain = 0
KBY1 162335Z 10006KT 26/15 A2994 RMK A01 T02610154  RH  052%=      5-min Rain = 0
KBY1 162336Z 11008KT 26/15 A2994 RMK A01 T02610153  RH  051%=      5-min Rain = 0
KBY1 162337Z 12007KT 26/15 A2994 RMK A01 T02610153  RH  051%=      5-min Rain = 0
KBY1 162338Z 11007KT 26/15 A2994 RMK A01 T02620153  RH  051%=      5-min Rain = 0
KBY1 162339Z 11008KT 26/15 A2994 RMK A01 T02610152  RH  051%=      5-min Rain = 0
KBY1 162340Z 11006KT 26/15 A2994 RMK A01 T02610154  RH  052%=      5-min Rain = 0
KBY1 162341Z 10006KT 26/16 A2994 RMK A01 T02600156  RH  053%=      5-min Rain = 0
KBY1 162342Z 10006KT 26/15 A2994 RMK A01 T02600151  RH  051%=      5-min Rain = 0
KBY1 162343Z 10007KT 26/16 A2994 RMK A01 T02580158  RH  054%=      5-min Rain = 0
KBY1 162344Z 10006KT 26/16 A2994 RMK A01 T02570159  RH  055%=      5-min Rain = 0
KBY1 162345Z 11007KT 26/16 A2994 RMK A01 T02560160  RH  055%=      5-min Rain = 0
KBY1 162346Z 11007KT 26/15 A2994 RMK A01 T02550153  RH  053%=      5-min Rain = 0
KBY1 162347Z 11008KT 25/16 A2994 RMK A01 T02540156  RH  054%=      5-min Rain = 0
KBY1 162348Z 11008KT 25/15 A2994 RMK A01 T02530153  RH  054%=      5-min Rain = 0
KBY1 162349Z 11007KT 25/16 A2994 RMK A01 T02520155  RH  055%=      5-min Rain = 0
KBY1 162350Z 10006KT 25/16 A2994 RMK A01 T02520156  RH  055%=      5-min Rain = 0
KBY1 162351Z 10007KT 25/16 A2994 RMK A01 T02510156  RH  055%=      5-min Rain = 0
KBY1 162352Z 11005KT 25/16 A2994 RMK A01 T02510155  RH  055%=      5-min Rain = 0
KBY1 162353Z 11005KT 25/16 A2994 RMK A01 T02510158  RH  056%=      5-min Rain = 0
KBY1 162354Z 11007KT 25/16 A2994 RMK A01 T02510157  RH  056%=      5-min Rain = 0
KBY1 162355Z 10006KT 25/16 A2995 RMK A01 T02510157  RH  056%=      5-min Rain = 0
KBY1 162356Z 10006KT 25/16 A2995 RMK A01 T02510160  RH  057%=      5-min Rain = 0
KBY1 162357Z 10007KT 25/15 A2995 RMK A01 T02510154  RH  055%=      5-min Rain = 0
KBY1 162358Z 10006KT 25/16 A2995 RMK A01 T02510157  RH  056%=      5-min Rain = 0
KBY1 162359Z 10006KT 25/16 A2995 RMK A01 T02510156  RH  055%=      5-min Rain = 0
KBY1 170000Z 10005KT 25/16 A2995 RMK A01 T02510156  RH  055%=      5-min Rain = 0
KBY1 170001Z 11004KT 25/16 A2995 RMK A01 T02510159  RH  057%=      5-min Rain = 0
KBY1 170002Z 11006KT 25/16 A2995 RMK A01 T02510161  RH  057%=      5-min Rain = 0
KBY1 170003Z 10006KT 25/16 A2995 RMK A01 T02510161  RH  057%=      5-min Rain = 0
KBY1 170004Z 10006KT 25/16 A2995 RMK A01 T02510160  RH  057%=      5-min Rain = 0
KBY1 170005Z 09007KT 25/16 A2995 RMK A01 T02510158  RH  056%=      5-min Rain = 0
KBY1 170006Z 10007KT 25/16 A2995 RMK A01 T02510159  RH  056%=      5-min Rain = 0
KBY1 170007Z 10007KT 25/16 A2995 RMK A01 T02510157  RH  056%=      5-min Rain = 0
KBY1 170008Z 09006KT 25/16 A2995 RMK A01 T02520160  RH  056%=      5-min Rain = 0
KBY1 170009Z 10006KT 25/16 A2995 RMK A01 T02530158  RH  055%=      5-min Rain = 0
KBY1 170010Z 09007KT 26/16 A2995 RMK A01 T02550163  RH  057%=      5-min Rain = 0
KBY1 170011Z 10007KT 26/16 A2995 RMK A01 T02560162  RH  056%=      5-min Rain = 0
KBY1 170012Z 11007KT 26/16 A2995 RMK A01 T02580157  RH  054%=      5-min Rain = 0
KBY1 170013Z 11007KT 26/16 A2995 RMK A01 T02580158  RH  054%=      5-min Rain = 0
KBY1 170014Z 11008KT 26/16 A2995 RMK A01 T02580155  RH  053%=      5-min Rain = 0
KBY1 170015Z 10007KT 26/16 A2995 RMK A01 T02580155  RH  053%=      5-min Rain = 0
KBY1 170016Z 10008KT 26/15 A2995 RMK A01 T02580150  RH  051%=      5-min Rain = 0
KBY1 170017Z 10007KT 26/15 A2995 RMK A01 T02570150  RH  052%=      5-min Rain = 0
KBY1 170018Z 09008KT 26/15 A2995 RMK A01 T02570154  RH  053%=      5-min Rain = 0
KBY1 170019Z 09009KT 26/15 A2995 RMK A01 T02570151  RH  052%=      5-min Rain = 0
KBY1 170020Z 09008KT 26/15 A2995 RMK A01 T02570153  RH  053%=      5-min Rain = 0
KBY1 170021Z 10008KT 26/15 A2995 RMK A01 T02560150  RH  052%=      5-min Rain = 0
KBY1 170022Z 10007KT 26/15 A2995 RMK A01 T02560150  RH  052%=      5-min Rain = 0
KBY1 170023Z 09006KT 26/15 A2995 RMK A01 T02560151  RH  052%=      5-min Rain = 0
KBY1 170024Z 10007KT 26/15 A2995 RMK A01 T02560149  RH  052%=      5-min Rain = 0
KBY1 170025Z 10008KT 26/15 A2996 RMK A01 T02570148  RH  051%=      5-min Rain = 0
KBY1 170026Z 10008KT 26/15 A2996 RMK A01 T02570146  RH  050%=      5-min Rain = 0
KBY1 170027Z 09008KT 26/14 A2996 RMK A01 T02560144  RH  050%=      5-min Rain = 0
KBY1 170028Z 10006KT 26/15 A2996 RMK A01 T02560149  RH  052%=      5-min Rain = 0
KBY1 170029Z 10007KT 26/15 A2996 RMK A01 T02560147  RH  051%=      5-min Rain = 0
KBY1 170030Z 10006KT 26/15 A2996 RMK A01 T02560148  RH  051%=      5-min Rain = 0
KBY1 170031Z 10005KT 26/15 A2996 RMK A01 T02560151  RH  052%=      5-min Rain = 0
KBY1 170032Z 10007KT 26/15 A2996 RMK A01 T02570149  RH  052%=      5-min Rain = 0
KBY1 170033Z 10008KT 26/14 A2996 RMK A01 T02570144  RH  050%=      5-min Rain = 0
KBY1 170034Z 11006KT 26/15 A2996 RMK A01 T02560147  RH  051%=      5-min Rain = 0
KBY1 170035Z 11007KT 26/15 A2996 RMK A01 T02560150  RH  052%=      5-min Rain = 0
KBY1 170036Z 10007KT 26/15 A2996 RMK A01 T02560150  RH  052%=      5-min Rain = 0
KBY1 170037Z 10007KT 26/15 A2996 RMK A01 T02560148  RH  051%=      5-min Rain = 0
KBY1 170038Z 10007KT 26/15 A2996 RMK A01 T02550148  RH  052%=      5-min Rain = 0
KBY1 170039Z 11006KT 26/15 A2996 RMK A01 T02550148  RH  052%=      5-min Rain = 0
KBY1 170040Z 11007KT 26/15 A2996 RMK A01 T02550149  RH  052%=      5-min Rain = 0
KBY1 170041Z 11006KT 25/15 A2996 RMK A01 T02540147  RH  052%=      5-min Rain = 0
KBY1 170042Z 10007KT 25/15 A2996 RMK A01 T02540146  RH  051%=      5-min Rain = 0
KBY1 170043Z 10008KT 25/14 A2996 RMK A01 T02540144  RH  050%=      5-min Rain = 0
KBY1 170044Z 10007KT 25/14 A2996 RMK A01 T02540139  RH  049%=      5-min Rain = 0
KBY1 170045Z 10008KT 25/14 A2996 RMK A01 T02540139  RH  049%=      5-min Rain = 0
KBY1 170046Z 09007KT 25/14 A2996 RMK A01 T02530143  RH  050%=      5-min Rain = 0
KBY1 170047Z 09007KT 25/15 A2996 RMK A01 T02530146  RH  052%=      5-min Rain = 0
KBY1 170048Z 10008KT 25/14 A2996 RMK A01 T02520142  RH  050%=      5-min Rain = 0
KBY1 170049Z 10008KT 25/14 A2996 RMK A01 T02520140  RH  050%=      5-min Rain = 0
KBY1 170050Z 10007KT 25/14 A2996 RMK A01 T02520143  RH  051%=      5-min Rain = 0
KBY1 170051Z 10007KT 25/14 A2996 RMK A01 T02510144  RH  051%=      5-min Rain = 0
KBY1 170052Z 10007KT 25/15 A2996 RMK A01 T02510146  RH  052%=      5-min Rain = 0
KBY1 170053Z 10006KT 25/15 A2996 RMK A01 T02500145  RH  052%=      5-min Rain = 0
KBY1 170054Z 10006KT 25/15 A2996 RMK A01 T02500149  RH  053%=      5-min Rain = 0
KBY1 170055Z 10008KT 25/15 A2996 RMK A01 T02500146  RH  052%=      5-min Rain = 0
KBY1 170056Z 10007KT 25/14 A2996 RMK A01 T02490142  RH  051%=      5-min Rain = 0
KBY1 170057Z 10006KT 25/15 A2996 RMK A01 T02500150  RH  054%=      5-min Rain = 0
KBY1 170058Z 10006KT 25/15 A2996 RMK A01 T02500148  RH  053%=      5-min Rain = 0
KBY1 170059Z 11007KT 25/15 A2996 RMK A01 T02490150  RH  054%=      5-min Rain = 0
KBY1 170100Z 10006KT 25/15 A2996 RMK A01 T02490149  RH  054%=      5-min Rain = 0
KBY1 170101Z 10005KT 25/15 A2996 RMK A01 T02490153  RH  055%=      5-min Rain = 0
KBY1 170102Z 11006KT 25/15 A2996 RMK A01 T02490154  RH  055%=      5-min Rain = 0
KBY1 170103Z 11005KT 25/16 A2996 RMK A01 T02490155  RH  056%=      5-min Rain = 0
KBY1 170104Z 11006KT 25/16 A2996 RMK A01 T02480155  RH  056%=      5-min Rain = 0
KBY1 170105Z 11007KT 25/15 A2996 RMK A01 T02480153  RH  055%=      5-min Rain = 0
KBY1 170106Z 10006KT 25/15 A2996 RMK A01 T02480150  RH  054%=      5-min Rain = 0
KBY1 170107Z 11007KT 25/15 A2996 RMK A01 T02480152  RH  055%=      5-min Rain = 0
KBY1 170108Z 11006KT 25/15 A2996 RMK A01 T02470148  RH  054%=      5-min Rain = 0
KBY1 170109Z 11007KT 25/15 A2996 RMK A01 T02470151  RH  055%=      5-min Rain = 0
KBY1 170110Z 11006KT 25/15 A2996 RMK A01 T02460151  RH  055%=      5-min Rain = 0
KBY1 170111Z 11007KT 25/15 A2996 RMK A01 T02460153  RH  056%=      5-min Rain = 0
KBY1 170112Z 11007KT 25/15 A2996 RMK A01 T02450152  RH  056%=      5-min Rain = 0
KBY1 170113Z 11005KT 24/15 A2996 RMK A01 T02440151  RH  056%=      5-min Rain = 0
KBY1 170114Z 11005KT 24/16 A2996 RMK A01 T02430155  RH  058%=      5-min Rain = 0
KBY1 170115Z 11006KT 24/16 A2996 RMK A01 T02430155  RH  058%=      5-min Rain = 0
KBY1 170116Z 10005KT 24/16 A2996 RMK A01 T02420155  RH  058%=      5-min Rain = 0
KBY1 170117Z 11006KT 24/16 A2996 RMK A01 T02400155  RH  059%=      5-min Rain = 0
KBY1 170118Z 11006KT 24/16 A2996 RMK A01 T02400155  RH  059%=      5-min Rain = 0
KBY1 170119Z 11006KT 24/16 A2996 RMK A01 T02380155  RH  060%=      5-min Rain = 0
KBY1 170120Z 11006KT 24/16 A2996 RMK A01 T02370155  RH  060%=      5-min Rain = 0
KBY1 170121Z 11005KT 24/16 A2996 RMK A01 T02360157  RH  061%=      5-min Rain = 0
KBY1 170122Z 11005KT 24/16 A2996 RMK A01 T02350156  RH  061%=      5-min Rain = 0
KBY1 170123Z 11005KT 23/16 A2996 RMK A01 T02340156  RH  062%=      5-min Rain = 0
KBY1 170124Z 11006KT 23/16 A2996 RMK A01 T02330157  RH  062%=      5-min Rain = 0
KBY1 170125Z 11005KT 23/16 A2996 RMK A01 T02320157  RH  062%=      5-min Rain = 0
KBY1 170126Z 11006KT 23/16 A2996 RMK A01 T02320158  RH  063%=      5-min Rain = 0
KBY1 170127Z 11005KT 23/16 A2996 RMK A01 T02310159  RH  064%=      5-min Rain = 0
KBY1 170128Z 11005KT 23/16 A2996 RMK A01 T02290160  RH  065%=      5-min Rain = 0
KBY1 170129Z 11005KT 23/16 A2996 RMK A01 T02280159  RH  065%=      5-min Rain = 0
KBY1 170130Z 12005KT 23/16 A2996 RMK A01 T02270160  RH  066%=      5-min Rain = 0
KBY1 170131Z 12004KT 23/16 A2996 RMK A01 T02270161  RH  066%=      5-min Rain = 0
KBY1 170132Z 12004KT 23/16 A2997 RMK A01 T02260161  RH  067%=      5-min Rain = 0
KBY1 170133Z 12004KT 23/16 A2997 RMK A01 T02250161  RH  067%=      5-min Rain = 0
KBY1 170134Z 12004KT 23/16 A2997 RMK A01 T02250161  RH  067%=      5-min Rain = 0
KBY1 170135Z 12004KT 22/16 A2997 RMK A01 T02240162  RH  068%=      5-min Rain = 0
KBY1 170136Z 12004KT 22/16 A2997 RMK A01 T02230162  RH  068%=      5-min Rain = 0
KBY1 170137Z 12004KT 22/16 A2997 RMK A01 T02230162  RH  068%=      5-min Rain = 0
KBY1 170138Z 12004KT 22/16 A2997 RMK A01 T02230162  RH  068%=      5-min Rain = 0
KBY1 170139Z 12004KT 22/16 A2997 RMK A01 T02220162  RH  069%=      5-min Rain = 0
KBY1 170140Z 12004KT 22/16 A2997 RMK A01 T02220162  RH  069%=      5-min Rain = 0
KBY1 170141Z 12004KT 22/16 A2997 RMK A01 T02210162  RH  069%=      5-min Rain = 0
KBY1 170142Z 12004KT 22/16 A2997 RMK A01 T02210162  RH  069%=      5-min Rain = 0
KBY1 170143Z 12004KT 22/16 A2997 RMK A01 T02210160  RH  069%=      5-min Rain = 0
KBY1 170144Z 12004KT 22/16 A2997 RMK A01 T02200160  RH  069%=      5-min Rain = 0
KBY1 170145Z 12004KT 22/16 A2997 RMK A01 T02200161  RH  069%=      5-min Rain = 0
KBY1 170146Z 12003KT 22/16 A2997 RMK A01 T02200161  RH  069%=      5-min Rain = 0
KBY1 170147Z 12003KT 22/16 A2997 RMK A01 T02190162  RH  070%=      5-min Rain = 0
KBY1 170148Z 12003KT 22/16 A2997 RMK A01 T02180161  RH  070%=      5-min Rain = 0
KBY1 170149Z 12003KT 22/16 A2997 RMK A01 T02180162  RH  070%=      5-min Rain = 0
KBY1 170150Z 12003KT 22/16 A2996 RMK A01 T02170162  RH  071%=      5-min Rain = 0
KBY1 170151Z 12003KT 22/16 A2996 RMK A01 T02170161  RH  071%=      5-min Rain = 0
KBY1 170152Z 12003KT 22/16 A2996 RMK A01 T02160162  RH  071%=      5-min Rain = 0
KBY1 170153Z 12003KT 22/16 A2996 RMK A01 T02160162  RH  071%=      5-min Rain = 0
KBY1 170154Z 12003KT 22/16 A2996 RMK A01 T02160162  RH  072%=      5-min Rain = 0
KBY1 170155Z 12003KT 22/16 A2996 RMK A01 T02160162  RH  072%=      5-min Rain = 0
KBY1 170156Z 12002KT 22/16 A2997 RMK A01 T02160163  RH  072%=      5-min Rain = 0
KBY1 170157Z 12002KT 22/16 A2997 RMK A01 T02150162  RH  072%=      5-min Rain = 0
KBY1 170158Z 12002KT 22/16 A2997 RMK A01 T02150162  RH  072%=      5-min Rain = 0
KBY1 170159Z 13002KT 22/16 A2997 RMK A01 T02150163  RH  072%=      5-min Rain = 0
KBY1 170200Z 13002KT 22/16 A2997 RMK A01 T02150162  RH  072%=      5-min Rain = 0
KBY1 170201Z 13002KT 22/16 A2997 RMK A01 T02160162  RH  072%=      5-min Rain = 0
KBY1 170202Z 12002KT 22/16 A2997 RMK A01 T02150162  RH  072%=      5-min Rain = 0
KBY1 170203Z 12002KT 22/16 A2997 RMK A01 T02150163  RH  072%=      5-min Rain = 0
KBY1 170204Z 12002KT 22/16 A2997 RMK A01 T02150163  RH  072%=      5-min Rain = 0
KBY1 170205Z 12001KT 21/16 A2997 RMK A01 T02140162  RH  072%=      5-min Rain = 0
KBY1 170206Z 11001KT 21/16 A2997 RMK A01 T02140163  RH  072%=      5-min Rain = 0
KBY1 170207Z 11001KT 21/16 A2997 RMK A01 T02130161  RH  072%=      5-min Rain = 0
KBY1 170208Z 10001KT 21/16 A2997 RMK A01 T02140162  RH  072%=      5-min Rain = 0
KBY1 170209Z 10001KT 21/16 A2997 RMK A01 T02130161  RH  072%=      5-min Rain = 0
KBY1 170210Z 09001KT 21/16 A2997 RMK A01 T02130161  RH  072%=      5-min Rain = 0
KBY1 170211Z 09001KT 21/16 A2997 RMK A01 T02120161  RH  072%=      5-min Rain = 0
KBY1 170212Z 08001KT 21/16 A2997 RMK A01 T02120161  RH  073%=      5-min Rain = 0
KBY1 170213Z 07001KT 21/16 A2997 RMK A01 T02110162  RH  073%=      5-min Rain = 0
KBY1 170214Z 08001KT 21/16 A2997 RMK A01 T02110162  RH  074%=      5-min Rain = 0
KBY1 170215Z 07001KT 21/16 A2997 RMK A01 T02100162  RH  074%=      5-min Rain = 0
KBY1 170216Z 07001KT 21/16 A2997 RMK A01 T02100162  RH  074%=      5-min Rain = 0
KBY1 170217Z 07001KT 21/16 A2997 RMK A01 T02090163  RH  075%=      5-min Rain = 0
KBY1 170218Z 08002KT 21/16 A2997 RMK A01 T02090163  RH  075%=      5-min Rain = 0
KBY1 170219Z 08002KT 21/16 A2997 RMK A01 T02090164  RH  075%=      5-min Rain = 0
KBY1 170220Z 08002KT 21/16 A2997 RMK A01 T02090163  RH  075%=      5-min Rain = 0
KBY1 170221Z 08002KT 21/16 A2997 RMK A01 T02090163  RH  075%=      5-min Rain = 0
KBY1 170222Z 07002KT 21/16 A2998 RMK A01 T02090163  RH  075%=      5-min Rain = 0
KBY1 170223Z 07002KT 21/16 A2998 RMK A01 T02090163  RH  075%=      5-min Rain = 0
KBY1 170224Z 07002KT 21/16 A2998 RMK A01 T02080164  RH  076%=      5-min Rain = 0
KBY1 170225Z 07002KT 21/17 A2998 RMK A01 T02070165  RH  076%=      5-min Rain = 0
KBY1 170226Z 07002KT 21/16 A2998 RMK A01 T02060164  RH  077%=      5-min Rain = 0
KBY1 170227Z 07002KT 21/16 A2998 RMK A01 T02060163  RH  076%=      5-min Rain = 0
KBY1 170228Z 06002KT 21/16 A2998 RMK A01 T02060162  RH  076%=      5-min Rain = 0
KBY1 170229Z 05002KT 21/16 A2998 RMK A01 T02070162  RH  075%=      5-min Rain = 0
KBY1 170230Z 05002KT 21/16 A2998 RMK A01 T02070161  RH  075%=      5-min Rain = 0
KBY1 170231Z 04002KT 21/16 A2998 RMK A01 T02080161  RH  075%=      5-min Rain = 0
KBY1 170232Z 03002KT 21/16 A2998 RMK A01 T02080162  RH  075%=      5-min Rain = 0
KBY1 170233Z 02002KT 21/16 A2998 RMK A01 T02080163  RH  075%=      5-min Rain = 0
KBY1 170234Z 03003KT 21/16 A2998 RMK A01 T02070164  RH  076%=      5-min Rain = 0
KBY1 170235Z 03002KT 21/17 A2998 RMK A01 T02070165  RH  077%=      5-min Rain = 0
KBY1 170236Z 04002KT 21/17 A2998 RMK A01 T02060165  RH  077%=      5-min Rain = 0
KBY1 170237Z 04002KT 21/17 A2998 RMK A01 T02060165  RH  078%=      5-min Rain = 0
KBY1 170238Z 04002KT 21/17 A2998 RMK A01 T02060166  RH  078%=      5-min Rain = 0
KBY1 170239Z 04002KT 21/17 A2998 RMK A01 T02060167  RH  079%=      5-min Rain = 0
KBY1 170240Z 05003KT 21/17 A2998 RMK A01 T02050166  RH  078%=      5-min Rain = 0
KBY1 170241Z 05003KT 20/17 A2998 RMK A01 T02040166  RH  078%=      5-min Rain = 0
KBY1 170242Z 05003KT 20/17 A2998 RMK A01 T02040167  RH  079%=      5-min Rain = 0
KBY1 170243Z 06003KT 20/17 A2998 RMK A01 T02030167  RH  080%=      5-min Rain = 0
KBY1 170244Z 07003KT 20/17 A2998 RMK A01 T02020167  RH  080%=      5-min Rain = 0
KBY1 170245Z 07004KT 20/17 A2998 RMK A01 T02010168  RH  082%=      5-min Rain = 0
KBY1 170246Z 07004KT 20/17 A2998 RMK A01 T01990168  RH  082%=      5-min Rain = 0
KBY1 170247Z 07003KT 20/17 A2998 RMK A01 T01980167  RH  082%=      5-min Rain = 0
KBY1 170248Z 07003KT 20/17 A2998 RMK A01 T01970167  RH  083%=      5-min Rain = 0
KBY1 170249Z 08003KT 20/17 A2998 RMK A01 T01960167  RH  084%=      5-min Rain = 0
KBY1 170250Z 08003KT 20/17 A2998 RMK A01 T01950167  RH  084%=      5-min Rain = 0
KBY1 170251Z 08003KT 19/17 A2998 RMK A01 T01940167  RH  084%=      5-min Rain = 0
KBY1 170252Z 09003KT 19/17 A2998 RMK A01 T01940168  RH  085%=      5-min Rain = 0
KBY1 170253Z 09003KT 19/17 A2998 RMK A01 T01940169  RH  085%=      5-min Rain = 0
KBY1 170254Z 09002KT 19/17 A2998 RMK A01 T01930169  RH  086%=      5-min Rain = 0
KBY1 170255Z 09003KT 19/17 A2998 RMK A01 T01920168  RH  086%=      5-min Rain = 0
KBY1 170256Z 10003KT 19/17 A2998 RMK A01 T01930167  RH  085%=      5-min Rain = 0
KBY1 170257Z 10003KT 19/17 A2998 RMK A01 T01920167  RH  085%=      5-min Rain = 0
KBY1 170258Z 10003KT 19/17 A2998 RMK A01 T01920168  RH  086%=      5-min Rain = 0
KBY1 170259Z 10004KT 19/17 A2998 RMK A01 T01920168  RH  086%=      5-min Rain = 0
KBY1 170300Z 10004KT 19/17 A2998 RMK A01 T01920169  RH  087%=      5-min Rain = 0
KBY1 170301Z 10003KT 19/17 A2998 RMK A01 T01920170  RH  087%=      5-min Rain = 0
KBY1 170302Z 10003KT 19/17 A2998 RMK A01 T01920170  RH  088%=      5-min Rain = 0
KBY1 170303Z 10003KT 19/17 A2998 RMK A01 T01910170  RH  088%=      5-min Rain = 0
KBY1 170304Z 10004KT 19/17 A2998 RMK A01 T01910171  RH  088%=      5-min Rain = 0
KBY1 170305Z 10004KT 19/17 A2998 RMK A01 T01910171  RH  088%=      5-min Rain = 0
KBY1 170306Z 10003KT 19/17 A2998 RMK A01 T01910171  RH  088%=      5-min Rain = 0
KBY1 170307Z 10003KT 19/17 A2998 RMK A01 T01910170  RH  088%=      5-min Rain = 0
KBY1 170308Z 10003KT 19/17 A2998 RMK A01 T01910170  RH  088%=      5-min Rain = 0
KBY1 170309Z 10004KT 19/17 A2998 RMK A01 T01910169  RH  087%=      5-min Rain = 0
KBY1 170310Z 10003KT 19/17 A2998 RMK A01 T01910168  RH  087%=      5-min Rain = 0
KBY1 170311Z 11003KT 19/17 A2999 RMK A01 T01910167  RH  086%=      5-min Rain = 0
KBY1 170312Z 11003KT 19/17 A2999 RMK A01 T01910167  RH  086%=      5-min Rain = 0
KBY1 170313Z 12002KT 19/17 A2999 RMK A01 T01900166  RH  086%=      5-min Rain = 0
KBY1 170314Z 12002KT 19/17 A2999 RMK A01 T01910167  RH  086%=      5-min Rain = 0
KBY1 170315Z 12002KT 19/17 A2999 RMK A01 T01910167  RH  086%=      5-min Rain = 0
KBY1 170316Z 12002KT 19/17 A2999 RMK A01 T01900167  RH  086%=      5-min Rain = 0
KBY1 170317Z 12003KT 19/17 A2999 RMK A01 T01900166  RH  086%=      5-min Rain = 0
KBY1 170318Z 11003KT 19/17 A2999 RMK A01 T01890167  RH  087%=      5-min Rain = 0
KBY1 170319Z 11003KT 19/17 A2999 RMK A01 T01890167  RH  087%=      5-min Rain = 0
KBY1 170320Z 10003KT 19/17 A2999 RMK A01 T01890167  RH  087%=      5-min Rain = 0
KBY1 170321Z 10003KT 19/17 A2999 RMK A01 T01880166  RH  087%=      5-min Rain = 0
KBY1 170322Z 10003KT 19/17 A2999 RMK A01 T01870166  RH  088%=      5-min Rain = 0
KBY1 170323Z 10003KT 19/17 A2999 RMK A01 T01870167  RH  088%=      5-min Rain = 0
KBY1 170324Z 11003KT 19/17 A2999 RMK A01 T01870167  RH  088%=      5-min Rain = 0
KBY1 170325Z 11003KT 19/17 A2999 RMK A01 T01860167  RH  088%=      5-min Rain = 0
KBY1 170326Z 10002KT 19/17 A2999 RMK A01 T01860167  RH  089%=      5-min Rain = 0
KBY1 170327Z 10002KT 19/17 A2999 RMK A01 T01860167  RH  089%=      5-min Rain = 0
KBY1 170328Z 11002KT 19/17 A2999 RMK A01 T01860167  RH  089%=      5-min Rain = 0
KBY1 170329Z 10002KT 19/17 A2999 RMK A01 T01860167  RH  089%=      5-min Rain = 0
KBY1 170330Z 11002KT 19/17 A30 RMK A01 T01860167  RH  089%=      5-min Rain = 0
KBY1 170331Z 11003KT 19/17 A30 RMK A01 T01860167  RH  089%=      5-min Rain = 0
KBY1 170332Z 11003KT 19/17 A30 RMK A01 T01860166  RH  088%=      5-min Rain = 0
KBY1 170333Z 11004KT 19/17 A30 RMK A01 T01860166  RH  088%=      5-min Rain = 0
KBY1 170334Z 11004KT 19/17 A30 RMK A01 T01860166  RH  088%=      5-min Rain = 0
KBY1 170335Z 11004KT 19/17 A30 RMK A01 T01850166  RH  088%=      5-min Rain = 0
KBY1 170336Z 10004KT 19/17 A30 RMK A01 T01850166  RH  089%=      5-min Rain = 0
KBY1 170337Z 11004KT 18/17 A30 RMK A01 T01840166  RH  089%=      5-min Rain = 0
KBY1 170338Z 10004KT 18/17 A30 RMK A01 T01840166  RH  089%=      5-min Rain = 0
KBY1 170339Z 10004KT 18/17 A30 RMK A01 T01830166  RH  090%=      5-min Rain = 0
KBY1 170340Z 10004KT 18/17 A30 RMK A01 T01820166  RH  090%=      5-min Rain = 0
KBY1 170341Z 10004KT 18/17 A30 RMK A01 T01820166  RH  090%=      5-min Rain = 0
KBY1 170342Z 10004KT 18/17 A30 RMK A01 T01820166  RH  091%=      5-min Rain = 0
KBY1 170343Z 10004KT 18/17 A30 RMK A01 T01810166  RH  091%=      5-min Rain = 0
KBY1 170344Z 10004KT 18/17 A30 RMK A01 T01810166  RH  091%=      5-min Rain = 0
KBY1 170345Z 10004KT 18/17 A30 RMK A01 T01810166  RH  091%=      5-min Rain = 0
KBY1 170346Z 10004KT 18/17 A3001 RMK A01 T01810167  RH  091%=      5-min Rain = 0
KBY1 170347Z 10004KT 18/17 A3001 RMK A01 T01800167  RH  092%=      5-min Rain = 0
KBY1 170348Z 10004KT 18/17 A3001 RMK A01 T01800167  RH  092%=      5-min Rain = 0
KBY1 170349Z 10004KT 18/17 A3001 RMK A01 T01800167  RH  092%=      5-min Rain = 0
KBY1 170350Z 10004KT 18/17 A3001 RMK A01 T01800167  RH  092%=      5-min Rain = 0
KBY1 170351Z 10003KT 18/17 A3001 RMK A01 T01800167  RH  092%=      5-min Rain = 0
KBY1 170352Z 10003KT 18/17 A3001 RMK A01 T01790167  RH  092%=      5-min Rain = 0
KBY1 170353Z 10003KT 18/17 A3001 RMK A01 T01800167  RH  092%=      5-min Rain = 0
KBY1 170354Z 10003KT 18/17 A3001 RMK A01 T01790167  RH  092%=      5-min Rain = 0
KBY1 170355Z 10003KT 18/17 A3001 RMK A01 T01790167  RH  092%=      5-min Rain = 0
KBY1 170356Z 10003KT 18/17 A3001 RMK A01 T01790167  RH  093%=      5-min Rain = 0
KBY1 170357Z 10003KT 18/17 A3001 RMK A01 T01790167  RH  093%=      5-min Rain = 0
KBY1 170358Z 10003KT 18/17 A3001 RMK A01 T01790167  RH  093%=      5-min Rain = 0
KBY1 170359Z 10003KT 18/17 A3001 RMK A01 T01790167  RH  093%=      5-min Rain = 0
KBY1 170400Z 10003KT 18/17 A3001 RMK A01 T01790167  RH  093%=      5-min Rain = 0
KBY1 170401Z 10003KT 18/17 A3001 RMK A01 T01800168  RH  093%=      5-min Rain = 0
KBY1 170402Z 10002KT 18/17 A3001 RMK A01 T01800168  RH  093%=      5-min Rain = 0
KBY1 170403Z 10002KT 18/17 A3001 RMK A01 T01800168  RH  093%=      5-min Rain = 0
KBY1 170404Z 11002KT 18/17 A3001 RMK A01 T01800168  RH  093%=      5-min Rain = 0
KBY1 170405Z 11002KT 18/17 A3002 RMK A01 T01800168  RH  093%=      5-min Rain = 0
KBY1 170406Z 11002KT 18/17 A3002 RMK A01 T01800168  RH  093%=      5-min Rain = 0
KBY1 170407Z 12002KT 18/17 A3002 RMK A01 T01800169  RH  093%=      5-min Rain = 0
KBY1 170408Z 11002KT 18/17 A3002 RMK A01 T01800170  RH  094%=      5-min Rain = 0
KBY1 170409Z 11003KT 18/17 A3002 RMK A01 T01800170  RH  094%=      5-min Rain = 0
KBY1 170410Z 11003KT 18/17 A3002 RMK A01 T01800168  RH  093%=      5-min Rain = 0
KBY1 170411Z 11003KT 18/17 A3002 RMK A01 T01800167  RH  092%=      5-min Rain = 0
KBY1 170412Z 10003KT 18/17 A3002 RMK A01 T01800167  RH  092%=      5-min Rain = 0
KBY1 170413Z 10004KT 18/17 A3002 RMK A01 T01800167  RH  092%=      5-min Rain = 0
KBY1 170414Z 10005KT 18/17 A3002 RMK A01 T01790167  RH  092%=      5-min Rain = 0
KBY1 170415Z 09005KT 18/17 A3002 RMK A01 T01790165  RH  092%=      5-min Rain = 0
KBY1 170416Z 09005KT 18/16 A3002 RMK A01 T01790164  RH  091%=      5-min Rain = 0
KBY1 170417Z 09005KT 18/16 A3002 RMK A01 T01780164  RH  091%=      5-min Rain = 0
KBY1 170418Z 09005KT 18/16 A3002 RMK A01 T01790164  RH  091%=      5-min Rain = 0
KBY1 170419Z 09004KT 18/16 A3002 RMK A01 T01780164  RH  091%=      5-min Rain = 0
KBY1 170420Z 09004KT 18/16 A3002 RMK A01 T01790164  RH  091%=      5-min Rain = 0
KBY1 170421Z 09004KT 18/16 A3002 RMK A01 T01790164  RH  091%=      5-min Rain = 0
KBY1 170422Z 09004KT 18/16 A3002 RMK A01 T01790164  RH  091%=      5-min Rain = 0
KBY1 170423Z 09004KT 18/16 A3002 RMK A01 T01790164  RH  091%=      5-min Rain = 0
KBY1 170424Z 09004KT 18/17 A3002 RMK A01 T01790165  RH  091%=      5-min Rain = 0
KBY1 170425Z 09004KT 18/17 A3002 RMK A01 T01790165  RH  091%=      5-min Rain = 0
KBY1 170426Z 09004KT 18/17 A3002 RMK A01 T01790165  RH  092%=      5-min Rain = 0
KBY1 170427Z 09004KT 18/17 A3002 RMK A01 T01780165  RH  092%=      5-min Rain = 0
KBY1 170428Z 10003KT 18/17 A3002 RMK A01 T01780165  RH  092%=      5-min Rain = 0
KBY1 170429Z 10003KT 18/17 A3002 RMK A01 T01780165  RH  092%=      5-min Rain = 0
KBY1 170430Z 10003KT 18/17 A3002 RMK A01 T01780165  RH  092%=      5-min Rain = 0
KBY1 170431Z 10003KT 18/17 A3002 RMK A01 T01780165  RH  092%=      5-min Rain = 0
KBY1 170432Z 10003KT 18/17 A3002 RMK A01 T01780165  RH  092%=      5-min Rain = 0
KBY1 170433Z 09002KT 18/17 A3002 RMK A01 T01780165  RH  092%=      5-min Rain = 0
KBY1 170434Z 08002KT 18/17 A3002 RMK A01 T01780165  RH  092%=      5-min Rain = 0
KBY1 170435Z 09002KT 18/17 A3002 RMK A01 T01780165  RH  092%=      5-min Rain = 0
KBY1 170436Z 08002KT 18/17 A3002 RMK A01 T01780165  RH  092%=      5-min Rain = 0
KBY1 170437Z 08003KT 18/17 A3002 RMK A01 T01780165  RH  092%=      5-min Rain = 0
KBY1 170438Z 09003KT 18/17 A3002 RMK A01 T01780165  RH  092%=      5-min Rain = 0
KBY1 170439Z 09003KT 18/17 A3002 RMK A01 T01790165  RH  092%=      5-min Rain = 0
KBY1 170440Z 09003KT 18/17 A3002 RMK A01 T01790165  RH  092%=      5-min Rain = 0
KBY1 170441Z 08003KT 18/17 A3002 RMK A01 T01790165  RH  092%=      5-min Rain = 0
KBY1 170442Z 08003KT 18/17 A3002 RMK A01 T01790165  RH  092%=      5-min Rain = 0
KBY1 170443Z 08003KT 18/16 A3002 RMK A01 T01790164  RH  091%=      5-min Rain = 0
KBY1 170444Z 07003KT 18/16 A3002 RMK A01 T01780164  RH  091%=      5-min Rain = 0
KBY1 170445Z 07004KT 18/16 A3002 RMK A01 T01780164  RH  092%=      5-min Rain = 0
KBY1 170446Z 07005KT 18/16 A3002 RMK A01 T01770164  RH  092%=      5-min Rain = 0
KBY1 170447Z 07005KT 18/16 A3002 RMK A01 T01770163  RH  092%=      5-min Rain = 0
KBY1 170448Z 08004KT 18/16 A3002 RMK A01 T01760163  RH  092%=      5-min Rain = 0
KBY1 170449Z 08004KT 18/16 A3002 RMK A01 T01760163  RH  092%=      5-min Rain = 0
KBY1 170450Z 08004KT 18/16 A3002 RMK A01 T01760163  RH  092%=      5-min Rain = 0
KBY1 170451Z 08003KT 18/16 A3002 RMK A01 T01760163  RH  092%=      5-min Rain = 0
KBY1 170452Z 08003KT 18/16 A3002 RMK A01 T01760163  RH  092%=      5-min Rain = 0
KBY1 170453Z 08003KT 18/16 A3002 RMK A01 T01760163  RH  092%=      5-min Rain = 0
KBY1 170454Z 08003KT 18/16 A3002 RMK A01 T01760163  RH  092%=      5-min Rain = 0
KBY1 170455Z 08002KT 18/16 A3002 RMK A01 T01760163  RH  092%=      5-min Rain = 0
KBY1 170456Z 08002KT 18/16 A3002 RMK A01 T01760163  RH  092%=      5-min Rain = 0
KBY1 170457Z 08003KT 18/16 A3002 RMK A01 T01760163  RH  092%=      5-min Rain = 0
KBY1 170458Z 08003KT 18/16 A3002 RMK A01 T01760163  RH  092%=      5-min Rain = 0
KBY1 170459Z 08003KT 18/16 A3002 RMK A01 T01770164  RH  092%=      5-min Rain = 0

Page generated in 0.1316 seconds.